Observation data for Endee on 12/09/2018      Previous  Date       Current Mesonet Observations  Soil Data  Daily Summary Page  Observations in Plain Language
KEN1 090600Z 14006KT M03/M04 A3028 RMK A01 T10341044  RH  093%=      5-min Rain = 0
KEN1 090601Z 14005KT M03/M04 A3028 RMK A01 T10341044  RH  093%=      5-min Rain = 0
KEN1 090602Z 14006KT M03/M04 A3028 RMK A01 T10341044  RH  093%=      5-min Rain = 0
KEN1 090603Z 14006KT M04/M05 A3028 RMK A01 T10351045  RH  093%=      5-min Rain = 0
KEN1 090604Z 14005KT M04/M05 A3028 RMK A01 T10351045  RH  093%=      5-min Rain = 0
KEN1 090605Z 14005KT M04/M05 A3028 RMK A01 T10361045  RH  093%=      5-min Rain = 0
KEN1 090606Z 14005KT M04/M05 A3028 RMK A01 T10351045  RH  093%=      5-min Rain = 0
KEN1 090607Z 14005KT M04/M05 A3028 RMK A01 T10361045  RH  093%=      5-min Rain = 0
KEN1 090608Z 14005KT M04/M04 A3028 RMK A01 T10351044  RH  094%=      5-min Rain = 0
KEN1 090609Z 14005KT M04/M04 A3028 RMK A01 T10351044  RH  094%=      5-min Rain = 0
KEN1 090610Z 15005KT M04/M04 A3028 RMK A01 T10351044  RH  094%=      5-min Rain = 0
KEN1 090611Z 15005KT M04/M04 A3028 RMK A01 T10351044  RH  094%=      5-min Rain = 0
KEN1 090612Z 15005KT M04/M04 A3028 RMK A01 T10351044  RH  093%=      5-min Rain = 0
KEN1 090613Z 15005KT M04/M05 A3028 RMK A01 T10361045  RH  093%=      5-min Rain = 0
KEN1 090614Z 14004KT M04/M05 A3028 RMK A01 T10361046  RH  093%=      5-min Rain = 0
KEN1 090615Z 14005KT M04/M05 A3028 RMK A01 T10371046  RH  093%=      5-min Rain = 0
KEN1 090616Z 14004KT M04/M05 A3028 RMK A01 T10371046  RH  093%=      5-min Rain = 0
KEN1 090617Z 14004KT M04/M05 A3028 RMK A01 T10371047  RH  093%=      5-min Rain = 0
KEN1 090618Z 13004KT M04/M05 A3028 RMK A01 T10371046  RH  094%=      5-min Rain = 0
KEN1 090619Z 13005KT M04/M04 A3028 RMK A01 T10361044  RH  094%=      5-min Rain = 0
KEN1 090620Z 14005KT M04/M04 A3028 RMK A01 T10351044  RH  094%=      5-min Rain = 0
KEN1 090621Z 14004KT M04/M05 A3028 RMK A01 T10361045  RH  094%=      5-min Rain = 0
KEN1 090622Z 14004KT M04/M05 A3028 RMK A01 T10371046  RH  093%=      5-min Rain = 0
KEN1 090623Z 14004KT M04/M05 A3028 RMK A01 T10381047  RH  093%=      5-min Rain = 0
KEN1 090624Z 14005KT M04/M05 A3028 RMK A01 T10391049  RH  093%=      5-min Rain = 0
KEN1 090625Z 14005KT M04/M05 A3028 RMK A01 T10401050  RH  093%=      5-min Rain = 0
KEN1 090626Z 14005KT M04/M05 A3028 RMK A01 T10401051  RH  093%=      5-min Rain = 0
KEN1 090627Z 14005KT M04/M05 A3028 RMK A01 T10411051  RH  093%=      5-min Rain = 0
KEN1 090628Z 14005KT M04/M05 A3028 RMK A01 T10411051  RH  093%=      5-min Rain = 0
KEN1 090629Z 13005KT M04/M05 A3028 RMK A01 T10411050  RH  094%=      5-min Rain = 0
KEN1 090630Z 14004KT M04/M05 A3028 RMK A01 T10411049  RH  094%=      5-min Rain = 0
KEN1 090631Z 14004KT M04/M05 A3028 RMK A01 T10401049  RH  094%=      5-min Rain = 0
KEN1 090632Z 13004KT M04/M05 A3028 RMK A01 T10401048  RH  094%=      5-min Rain = 0
KEN1 090633Z 13004KT M04/M05 A3028 RMK A01 T10401049  RH  094%=      5-min Rain = 0
KEN1 090634Z 13004KT M04/M05 A3028 RMK A01 T10401048  RH  094%=      5-min Rain = 0
KEN1 090635Z 13004KT M04/M05 A3028 RMK A01 T10401048  RH  094%=      5-min Rain = 0
KEN1 090636Z 13004KT M04/M05 A3028 RMK A01 T10401049  RH  094%=      5-min Rain = 0
KEN1 090637Z 13004KT M04/M05 A3028 RMK A01 T10401048  RH  094%=      5-min Rain = 0
KEN1 090638Z 13004KT M04/M05 A3028 RMK A01 T10401049  RH  094%=      5-min Rain = 0
KEN1 090639Z 13004KT M04/M05 A3028 RMK A01 T10411049  RH  094%=      5-min Rain = 0
KEN1 090640Z 13004KT M04/M05 A3028 RMK A01 T10421051  RH  094%=      5-min Rain = 0
KEN1 090641Z 13004KT M04/M05 A3028 RMK A01 T10431052  RH  093%=      5-min Rain = 0
KEN1 090642Z 12005KT M04/M05 A3028 RMK A01 T10441053  RH  093%=      5-min Rain = 0
KEN1 090643Z 12004KT M04/M05 A3028 RMK A01 T10441053  RH  093%=      5-min Rain = 0
KEN1 090644Z 13005KT M04/M05 A3028 RMK A01 T10441052  RH  094%=      5-min Rain = 0
KEN1 090645Z 13004KT M04/M05 A3028 RMK A01 T10441053  RH  094%=      5-min Rain = 0
KEN1 090646Z 13004KT M05/M05 A3028 RMK A01 T10451054  RH  094%=      5-min Rain = 0
KEN1 090647Z 14004KT M05/M05 A3028 RMK A01 T10451054  RH  094%=      5-min Rain = 0
KEN1 090648Z 14004KT M05/M05 A3028 RMK A01 T10461054  RH  094%=      5-min Rain = 0
KEN1 090649Z 13004KT M05/M05 A3028 RMK A01 T10461054  RH  094%=      5-min Rain = 0
KEN1 090650Z 13004KT M05/M05 A3028 RMK A01 T10451054  RH  094%=      5-min Rain = 0
KEN1 090651Z 13004KT M05/M05 A3028 RMK A01 T10461054  RH  094%=      5-min Rain = 0
KEN1 090652Z 13004KT M05/M05 A3028 RMK A01 T10461054  RH  094%=      5-min Rain = 0
KEN1 090653Z 14004KT M05/M05 A3028 RMK A01 T10461054  RH  094%=      5-min Rain = 0
KEN1 090654Z 14004KT M05/M05 A3028 RMK A01 T10461053  RH  095%=      5-min Rain = 0
KEN1 090655Z 14004KT M05/M05 A3028 RMK A01 T10451053  RH  095%=      5-min Rain = 0
KEN1 090656Z 14004KT M05/M05 A3028 RMK A01 T10451052  RH  095%=      5-min Rain = 0
KEN1 090657Z 14004KT M05/M05 A3028 RMK A01 T10451052  RH  095%=      5-min Rain = 0
KEN1 090658Z 14004KT M04/M05 A3028 RMK A01 T10441051  RH  095%=      5-min Rain = 0
KEN1 090659Z 14004KT M04/M05 A3028 RMK A01 T10431050  RH  095%=      5-min Rain = 0
KEN1 090700Z 14004KT M04/M05 A3028 RMK A01 T10421049  RH  095%=      5-min Rain = 0
KEN1 090701Z 14004KT M04/M05 A3028 RMK A01 T10421049  RH  095%=      5-min Rain = 0
KEN1 090702Z 14003KT M04/M05 A3028 RMK A01 T10421049  RH  095%=      5-min Rain = 0
KEN1 090703Z 14003KT M05/M05 A3028 RMK A01 T10451053  RH  094%=      5-min Rain = 0
KEN1 090704Z 15003KT M05/M06 A3028 RMK A01 T10461056  RH  093%=      5-min Rain = 0
KEN1 090705Z 15003KT M05/M06 A3028 RMK A01 T10461056  RH  093%=      5-min Rain = 0
KEN1 090706Z 15003KT M04/M05 A3028 RMK A01 T10441052  RH  094%=      5-min Rain = 0
KEN1 090707Z 15003KT M04/M05 A3028 RMK A01 T10421050  RH  095%=      5-min Rain = 0
KEN1 090708Z 15003KT M04/M05 A3028 RMK A01 T10421049  RH  095%=      5-min Rain = 0
KEN1 090709Z 15003KT M04/M05 A3028 RMK A01 T10411048  RH  095%=      5-min Rain = 0
KEN1 090710Z 16003KT M04/M05 A3028 RMK A01 T10411049  RH  095%=      5-min Rain = 0
KEN1 090711Z 16002KT M04/M05 A3028 RMK A01 T10421050  RH  094%=      5-min Rain = 0
KEN1 090712Z 16002KT M04/M05 A3028 RMK A01 T10441054  RH  093%=      5-min Rain = 0
KEN1 090713Z 16002KT M05/M06 A3028 RMK A01 T10461056  RH  093%=      5-min Rain = 0
KEN1 090714Z 16001KT M05/M06 A3029 RMK A01 T10461056  RH  093%=      5-min Rain = 0
KEN1 090715Z 16001KT M05/M06 A3029 RMK A01 T10461056  RH  093%=      5-min Rain = 0
KEN1 090716Z 16000KT M05/M06 A3029 RMK A01 T10471057  RH  093%=      5-min Rain = 0
KEN1 090717Z 00000KT M05/M06 A3029 RMK A01 T10471056  RH  093%=      5-min Rain = 0
KEN1 090718Z 00000KT M05/M06 A3029 RMK A01 T10471056  RH  093%=      5-min Rain = 0
KEN1 090719Z 00000KT M05/M06 A3029 RMK A01 T10471055  RH  094%=      5-min Rain = 0
KEN1 090720Z 00000KT M05/M06 A3029 RMK A01 T10471055  RH  094%=      5-min Rain = 0
KEN1 090721Z 00000KT M05/M06 A3029 RMK A01 T10481056  RH  094%=      5-min Rain = 0
KEN1 090722Z 00000KT M05/M06 A3029 RMK A01 T10481057  RH  094%=      5-min Rain = 0
KEN1 090723Z 00000KT M05/M06 A3029 RMK A01 T10481057  RH  094%=      5-min Rain = 0
KEN1 090724Z 00000KT M05/M06 A3029 RMK A01 T10491058  RH  094%=      5-min Rain = 0
KEN1 090725Z 00000KT M05/M06 A3029 RMK A01 T10491058  RH  094%=      5-min Rain = 0
KEN1 090726Z 00000KT M05/M06 A3029 RMK A01 T10491058  RH  094%=      5-min Rain = 0
KEN1 090727Z 16000KT M05/M06 A3028 RMK A01 T10491058  RH  094%=      5-min Rain = 0
KEN1 090728Z 16001KT M05/M06 A3028 RMK A01 T10491058  RH  094%=      5-min Rain = 0
KEN1 090729Z 16002KT M05/M06 A3028 RMK A01 T10501058  RH  094%=      5-min Rain = 0
KEN1 090730Z 16002KT M05/M06 A3028 RMK A01 T10491058  RH  094%=      5-min Rain = 0
KEN1 090731Z 16003KT M05/M06 A3028 RMK A01 T10491057  RH  094%=      5-min Rain = 0
KEN1 090732Z 16003KT M05/M06 A3028 RMK A01 T10491057  RH  094%=      5-min Rain = 0
KEN1 090733Z 15004KT M05/M06 A3028 RMK A01 T10481056  RH  095%=      5-min Rain = 0
KEN1 090734Z 15004KT M05/M05 A3028 RMK A01 T10471054  RH  095%=      5-min Rain = 0
KEN1 090735Z 15003KT M05/M05 A3028 RMK A01 T10461052  RH  095%=      5-min Rain = 0
KEN1 090736Z 16004KT M05/M05 A3028 RMK A01 T10451051  RH  095%=      5-min Rain = 0
KEN1 090737Z 16004KT M05/M05 A3028 RMK A01 T10451051  RH  095%=      5-min Rain = 0
KEN1 090738Z 16004KT M04/M05 A3028 RMK A01 T10441051  RH  095%=      5-min Rain = 0
KEN1 090739Z 16004KT M04/M05 A3028 RMK A01 T10441051  RH  095%=      5-min Rain = 0
KEN1 090740Z 16004KT M04/M05 A3028 RMK A01 T10431050  RH  095%=      5-min Rain = 0
KEN1 090741Z 16004KT M04/M05 A3028 RMK A01 T10431049  RH  095%=      5-min Rain = 0
KEN1 090742Z 16004KT M04/M05 A3028 RMK A01 T10421048  RH  095%=      5-min Rain = 0
KEN1 090743Z 16003KT M04/M05 A3028 RMK A01 T10411048  RH  095%=      5-min Rain = 0
KEN1 090744Z 16003KT M04/M05 A3028 RMK A01 T10421049  RH  095%=      5-min Rain = 0
KEN1 090745Z 16003KT M04/M05 A3028 RMK A01 T10431050  RH  094%=      5-min Rain = 0
KEN1 090746Z 16003KT M04/M05 A3029 RMK A01 T10431051  RH  094%=      5-min Rain = 0
KEN1 090747Z 16003KT M04/M05 A3029 RMK A01 T10441052  RH  094%=      5-min Rain = 0
KEN1 090748Z 16003KT M04/M05 A3029 RMK A01 T10441053  RH  094%=      5-min Rain = 0
KEN1 090749Z 16003KT M05/M05 A3029 RMK A01 T10451054  RH  093%=      5-min Rain = 0
KEN1 090750Z 15003KT M05/M06 A3028 RMK A01 T10461055  RH  093%=      5-min Rain = 0
KEN1 090751Z 14003KT M05/M05 A3028 RMK A01 T10451054  RH  094%=      5-min Rain = 0
KEN1 090752Z 14003KT M04/M05 A3028 RMK A01 T10441052  RH  094%=      5-min Rain = 0
KEN1 090753Z 14003KT M04/M05 A3028 RMK A01 T10441053  RH  094%=      5-min Rain = 0
KEN1 090754Z 15003KT M05/M05 A3028 RMK A01 T10451053  RH  094%=      5-min Rain = 0
KEN1 090755Z 15002KT M05/M06 A3029 RMK A01 T10461055  RH  093%=      5-min Rain = 0
KEN1 090756Z 15002KT M05/M06 A3029 RMK A01 T10471056  RH  093%=      5-min Rain = 0
KEN1 090757Z 15002KT M05/M06 A3029 RMK A01 T10471057  RH  093%=      5-min Rain = 0
KEN1 090758Z 14002KT M05/M06 A3029 RMK A01 T10481058  RH  093%=      5-min Rain = 0
KEN1 090759Z 14002KT M05/M06 A3029 RMK A01 T10501060  RH  093%=      5-min Rain = 0
KEN1 090800Z 14002KT M05/M06 A3029 RMK A01 T10511062  RH  092%=      5-min Rain = 0
KEN1 090801Z 14002KT M05/M06 A3029 RMK A01 T10521062  RH  093%=      5-min Rain = 0
KEN1 090802Z 14001KT M05/M06 A3029 RMK A01 T10521062  RH  093%=      5-min Rain = 0
KEN1 090803Z 14000KT M05/M06 A3029 RMK A01 T10541064  RH  093%=      5-min Rain = 0
KEN1 090804Z 00000KT M06/M07 A3029 RMK A01 T10561066  RH  092%=      5-min Rain = 0
KEN1 090805Z 00000KT M06/M07 A3029 RMK A01 T10571068  RH  092%=      5-min Rain = 0
KEN1 090806Z 09000KT M06/M06 A3029 RMK A01 T10551064  RH  093%=      5-min Rain = 0
KEN1 090807Z 35000KT M05/M06 A3029 RMK A01 T10531061  RH  094%=      5-min Rain = 0
KEN1 090808Z 33001KT M05/M06 A3029 RMK A01 T10531060  RH  095%=      5-min Rain = 0
KEN1 090809Z 33000KT M05/M06 A3029 RMK A01 T10521059  RH  095%=      5-min Rain = 0
KEN1 090810Z 00000KT M05/M06 A3029 RMK A01 T10501056  RH  095%=      5-min Rain = 0
KEN1 090811Z 00000KT M05/M05 A3029 RMK A01 T10481054  RH  096%=      5-min Rain = 0
KEN1 090812Z 00000KT M05/M05 A3029 RMK A01 T10471052  RH  096%=      5-min Rain = 0
KEN1 090813Z 00000KT M05/M05 A3029 RMK A01 T10451051  RH  096%=      5-min Rain = 0
KEN1 090814Z 00000KT M05/M05 A3029 RMK A01 T10451051  RH  096%=      5-min Rain = 0
KEN1 090815Z 00000KT M05/M05 A3029 RMK A01 T10451051  RH  096%=      5-min Rain = 0
KEN1 090816Z 00000KT M05/M05 A3029 RMK A01 T10451050  RH  096%=      5-min Rain = 0
KEN1 090817Z 00000KT M04/M05 A3029 RMK A01 T10441049  RH  096%=      5-min Rain = 0
KEN1 090818Z 00000KT M04/M05 A3029 RMK A01 T10441049  RH  096%=      5-min Rain = 0
KEN1 090819Z 00000KT M05/M05 A3029 RMK A01 T10451050  RH  096%=      5-min Rain = 0
KEN1 090820Z 03001KT M05/M05 A3029 RMK A01 T10451051  RH  096%=      5-min Rain = 0
KEN1 090821Z 03001KT M04/M05 A3029 RMK A01 T10441050  RH  096%=      5-min Rain = 0
KEN1 090822Z 03001KT M04/M05 A3029 RMK A01 T10431049  RH  096%=      5-min Rain = 0
KEN1 090823Z 03000KT M04/M05 A3029 RMK A01 T10431048  RH  096%=      5-min Rain = 0
KEN1 090824Z 03001KT M04/M05 A3029 RMK A01 T10441049  RH  096%=      5-min Rain = 0
KEN1 090825Z 03001KT M04/M05 A3029 RMK A01 T10441050  RH  096%=      5-min Rain = 0
KEN1 090826Z 03000KT M05/M05 A3029 RMK A01 T10451051  RH  096%=      5-min Rain = 0
KEN1 090827Z 03000KT M05/M05 A3029 RMK A01 T10451052  RH  095%=      5-min Rain = 0
KEN1 090828Z 03000KT M05/M05 A3029 RMK A01 T10461052  RH  095%=      5-min Rain = 0
KEN1 090829Z 03001KT M05/M05 A3029 RMK A01 T10471053  RH  095%=      5-min Rain = 0
KEN1 090830Z 03001KT M05/M05 A3029 RMK A01 T10471054  RH  095%=      5-min Rain = 0
KEN1 090831Z 01001KT M05/M05 A3029 RMK A01 T10471054  RH  095%=      5-min Rain = 0
KEN1 090832Z 01001KT M05/M06 A3029 RMK A01 T10471055  RH  095%=      5-min Rain = 0
KEN1 090833Z 01001KT M05/M06 A3029 RMK A01 T10481055  RH  095%=      5-min Rain = 0
KEN1 090834Z 01002KT M05/M05 A3029 RMK A01 T10471054  RH  095%=      5-min Rain = 0
KEN1 090835Z 01002KT M05/M05 A303 RMK A01 T10471054  RH  095%=      5-min Rain = 0
KEN1 090836Z 02002KT M05/M05 A303 RMK A01 T10471054  RH  095%=      5-min Rain = 0
KEN1 090837Z 03003KT M05/M05 A303 RMK A01 T10461052  RH  095%=      5-min Rain = 0
KEN1 090838Z 03003KT M04/M05 A303 RMK A01 T10441051  RH  095%=      5-min Rain = 0
KEN1 090839Z 03003KT M04/M05 A303 RMK A01 T10441051  RH  095%=      5-min Rain = 0
KEN1 090840Z 03004KT M04/M05 A303 RMK A01 T10441051  RH  095%=      5-min Rain = 0
KEN1 090841Z 03004KT M04/M05 A303 RMK A01 T10441051  RH  095%=      5-min Rain = 0
KEN1 090842Z 02004KT M05/M05 A303 RMK A01 T10451052  RH  095%=      5-min Rain = 0
KEN1 090843Z 02004KT M05/M05 A303 RMK A01 T10451052  RH  095%=      5-min Rain = 0
KEN1 090844Z 02004KT M05/M05 A303 RMK A01 T10451053  RH  095%=      5-min Rain = 0
KEN1 090845Z 02005KT M05/M05 A303 RMK A01 T10461053  RH  094%=      5-min Rain = 0
KEN1 090846Z 02005KT M05/M05 A303 RMK A01 T10461053  RH  095%=      5-min Rain = 0
KEN1 090847Z 02005KT M05/M05 A303 RMK A01 T10461053  RH  095%=      5-min Rain = 0
KEN1 090848Z 01005KT M05/M05 A303 RMK A01 T10461053  RH  095%=      5-min Rain = 0
KEN1 090849Z 01005KT M05/M05 A303 RMK A01 T10451052  RH  095%=      5-min Rain = 0
KEN1 090850Z 01005KT M05/M05 A303 RMK A01 T10451052  RH  095%=      5-min Rain = 0
KEN1 090851Z 00004KT M05/M05 A303 RMK A01 T10451052  RH  095%=      5-min Rain = 0
KEN1 090852Z 00004KT M05/M05 A303 RMK A01 T10451052  RH  095%=      5-min Rain = 0
KEN1 090853Z 00003KT M05/M05 A303 RMK A01 T10451052  RH  095%=      5-min Rain = 0
KEN1 090854Z 01003KT M05/M05 A303 RMK A01 T10451052  RH  095%=      5-min Rain = 0
KEN1 090855Z 01003KT M05/M05 A303 RMK A01 T10451051  RH  095%=      5-min Rain = 0
KEN1 090856Z 02003KT M05/M05 A303 RMK A01 T10451052  RH  095%=      5-min Rain = 0
KEN1 090857Z 02003KT M05/M05 A303 RMK A01 T10451052  RH  095%=      5-min Rain = 0
KEN1 090858Z 02002KT M05/M05 A303 RMK A01 T10451052  RH  095%=      5-min Rain = 0
KEN1 090859Z 02001KT M05/M05 A303 RMK A01 T10451052  RH  095%=      5-min Rain = 0
KEN1 090900Z 02001KT M05/M05 A303 RMK A01 T10451052  RH  095%=      5-min Rain = 0
KEN1 090901Z 03001KT M05/M05 A303 RMK A01 T10451052  RH  095%=      5-min Rain = 0
KEN1 090902Z 03001KT M05/M05 A303 RMK A01 T10451052  RH  095%=      5-min Rain = 0
KEN1 090903Z 03001KT M05/M05 A303 RMK A01 T10451052  RH  095%=      5-min Rain = 0
KEN1 090904Z 03001KT M05/M05 A303 RMK A01 T10451052  RH  095%=      5-min Rain = 0
KEN1 090905Z 03001KT M05/M05 A303 RMK A01 T10451052  RH  095%=      5-min Rain = 0
KEN1 090906Z 03001KT M05/M05 A303 RMK A01 T10451052  RH  095%=      5-min Rain = 0
KEN1 090907Z 03001KT M05/M05 A303 RMK A01 T10451052  RH  095%=      5-min Rain = 0
KEN1 090908Z 03001KT M05/M05 A303 RMK A01 T10451052  RH  095%=      5-min Rain = 0
KEN1 090909Z 00000KT M05/M05 A303 RMK A01 T10451052  RH  095%=      5-min Rain = 0
KEN1 090910Z 03000KT M05/M05 A303 RMK A01 T10451052  RH  095%=      5-min Rain = 0
KEN1 090911Z 03000KT M05/M05 A303 RMK A01 T10451052  RH  095%=      5-min Rain = 0
KEN1 090912Z 03000KT M05/M05 A303 RMK A01 T10451053  RH  095%=      5-min Rain = 0
KEN1 090913Z 00000KT M05/M05 A303 RMK A01 T10461054  RH  094%=      5-min Rain = 0
KEN1 090914Z 00000KT M05/M06 A303 RMK A01 T10471055  RH  094%=      5-min Rain = 0
KEN1 090915Z 00000KT M05/M06 A303 RMK A01 T10471055  RH  094%=      5-min Rain = 0
KEN1 090916Z 00000KT M05/M06 A303 RMK A01 T10471055  RH  094%=      5-min Rain = 0
KEN1 090917Z 00000KT M05/M06 A303 RMK A01 T10481056  RH  094%=      5-min Rain = 0
KEN1 090918Z 00000KT M05/M06 A303 RMK A01 T10481056  RH  094%=      5-min Rain = 0
KEN1 090919Z 00000KT M05/M06 A303 RMK A01 T10481056  RH  094%=      5-min Rain = 0
KEN1 090920Z 00000KT M05/M06 A303 RMK A01 T10481056  RH  094%=      5-min Rain = 0
KEN1 090921Z 00000KT M05/M06 A303 RMK A01 T10481056  RH  094%=      5-min Rain = 0
KEN1 090922Z 00000KT M05/M06 A303 RMK A01 T10481056  RH  094%=      5-min Rain = 0
KEN1 090923Z 00000KT M05/M06 A303 RMK A01 T10481056  RH  094%=      5-min Rain = 0
KEN1 090924Z 09000KT M05/M06 A303 RMK A01 T10481056  RH  094%=      5-min Rain = 0
KEN1 090925Z 10001KT M05/M06 A303 RMK A01 T10481056  RH  094%=      5-min Rain = 0
KEN1 090926Z 10001KT M05/M06 A303 RMK A01 T10491057  RH  094%=      5-min Rain = 0
KEN1 090927Z 10001KT M05/M06 A303 RMK A01 T10491057  RH  094%=      5-min Rain = 0
KEN1 090928Z 09001KT M05/M06 A303 RMK A01 T10491057  RH  094%=      5-min Rain = 0
KEN1 090929Z 07001KT M05/M06 A303 RMK A01 T10501058  RH  094%=      5-min Rain = 0
KEN1 090930Z 06001KT M05/M06 A303 RMK A01 T10501058  RH  094%=      5-min Rain = 0
KEN1 090931Z 05002KT M05/M06 A303 RMK A01 T10501058  RH  094%=      5-min Rain = 0
KEN1 090932Z 04001KT M05/M06 A303 RMK A01 T10501058  RH  094%=      5-min Rain = 0
KEN1 090933Z 04002KT M05/M06 A303 RMK A01 T10491057  RH  094%=      5-min Rain = 0
KEN1 090934Z 05003KT M05/M06 A303 RMK A01 T10491056  RH  094%=      5-min Rain = 0
KEN1 090935Z 05003KT M05/M06 A303 RMK A01 T10471055  RH  095%=      5-min Rain = 0
KEN1 090936Z 05003KT M05/M05 A303 RMK A01 T10461053  RH  095%=      5-min Rain = 0
KEN1 090937Z 05003KT M05/M05 A303 RMK A01 T10461053  RH  095%=      5-min Rain = 0
KEN1 090938Z 05004KT M05/M05 A303 RMK A01 T10461053  RH  095%=      5-min Rain = 0
KEN1 090939Z 05003KT M05/M05 A303 RMK A01 T10461054  RH  094%=      5-min Rain = 0
KEN1 090940Z 05003KT M05/M06 A303 RMK A01 T10471055  RH  094%=      5-min Rain = 0
KEN1 090941Z 05003KT M05/M06 A303 RMK A01 T10471056  RH  094%=      5-min Rain = 0
KEN1 090942Z 05003KT M05/M06 A303 RMK A01 T10471056  RH  094%=      5-min Rain = 0
KEN1 090943Z 05004KT M05/M06 A303 RMK A01 T10481056  RH  094%=      5-min Rain = 0
KEN1 090944Z 04005KT M05/M06 A303 RMK A01 T10481056  RH  094%=      5-min Rain = 0
KEN1 090945Z 03005KT M05/M06 A303 RMK A01 T10471056  RH  094%=      5-min Rain = 0
KEN1 090946Z 04004KT M05/M06 A303 RMK A01 T10481056  RH  094%=      5-min Rain = 0
KEN1 090947Z 04004KT M05/M06 A303 RMK A01 T10481056  RH  094%=      5-min Rain = 0
KEN1 090948Z 03004KT M05/M06 A303 RMK A01 T10481057  RH  094%=      5-min Rain = 0
KEN1 090949Z 03004KT M05/M06 A303 RMK A01 T10481056  RH  094%=      5-min Rain = 0
KEN1 090950Z 03004KT M05/M06 A303 RMK A01 T10481057  RH  093%=      5-min Rain = 0
KEN1 090951Z 03004KT M05/M06 A303 RMK A01 T10481057  RH  093%=      5-min Rain = 0
KEN1 090952Z 04003KT M05/M06 A303 RMK A01 T10491058  RH  093%=      5-min Rain = 0
KEN1 090953Z 04003KT M05/M06 A303 RMK A01 T10491058  RH  093%=      5-min Rain = 0
KEN1 090954Z 05003KT M05/M06 A303 RMK A01 T10491058  RH  093%=      5-min Rain = 0
KEN1 090955Z 05003KT M05/M06 A303 RMK A01 T10481058  RH  093%=      5-min Rain = 0
KEN1 090956Z 06003KT M05/M06 A303 RMK A01 T10481057  RH  093%=      5-min Rain = 0
KEN1 090957Z 07003KT M05/M06 A303 RMK A01 T10491058  RH  093%=      5-min Rain = 0
KEN1 090958Z 06003KT M05/M06 A303 RMK A01 T10491057  RH  093%=      5-min Rain = 0
KEN1 090959Z 06003KT M05/M06 A303 RMK A01 T10481057  RH  093%=      5-min Rain = 0
KEN1 091000Z 08002KT M05/M06 A303 RMK A01 T10491058  RH  093%=      5-min Rain = 0
KEN1 091001Z 11002KT M05/M06 A303 RMK A01 T10491058  RH  093%=      5-min Rain = 0
KEN1 091002Z 11002KT M05/M06 A303 RMK A01 T10501060  RH  093%=      5-min Rain = 0
KEN1 091003Z 10002KT M05/M06 A303 RMK A01 T10521062  RH  093%=      5-min Rain = 0
KEN1 091004Z 10002KT M05/M06 A303 RMK A01 T10531063  RH  093%=      5-min Rain = 0
KEN1 091005Z 09002KT M05/M06 A303 RMK A01 T10541064  RH  092%=      5-min Rain = 0
KEN1 091006Z 09002KT M06/M07 A303 RMK A01 T10551065  RH  092%=      5-min Rain = 0
KEN1 091007Z 08002KT M06/M07 A303 RMK A01 T10551066  RH  092%=      5-min Rain = 0
KEN1 091008Z 08002KT M06/M07 A303 RMK A01 T10561066  RH  092%=      5-min Rain = 0
KEN1 091009Z 08002KT M06/M07 A303 RMK A01 T10551066  RH  093%=      5-min Rain = 0
KEN1 091010Z 08002KT M06/M07 A303 RMK A01 T10561066  RH  093%=      5-min Rain = 0
KEN1 091011Z 09002KT M06/M07 A303 RMK A01 T10561066  RH  093%=      5-min Rain = 0
KEN1 091012Z 09002KT M06/M07 A303 RMK A01 T10561065  RH  093%=      5-min Rain = 0
KEN1 091013Z 09001KT M06/M07 A303 RMK A01 T10551065  RH  093%=      5-min Rain = 0
KEN1 091014Z 09001KT M06/M07 A303 RMK A01 T10561065  RH  093%=      5-min Rain = 0
KEN1 091015Z 09001KT M06/M07 A3029 RMK A01 T10561066  RH  093%=      5-min Rain = 0
KEN1 091016Z 09001KT M06/M07 A3029 RMK A01 T10571067  RH  093%=      5-min Rain = 0
KEN1 091017Z 09000KT M06/M07 A3029 RMK A01 T10571068  RH  092%=      5-min Rain = 0
KEN1 091018Z 10000KT M06/M07 A3029 RMK A01 T10581068  RH  092%=      5-min Rain = 0
KEN1 091019Z 15002KT M06/M07 A3029 RMK A01 T10591069  RH  092%=      5-min Rain = 0
KEN1 091020Z 15002KT M06/M07 A3029 RMK A01 T10591070  RH  092%=      5-min Rain = 0
KEN1 091021Z 15002KT M06/M07 A3029 RMK A01 T10591069  RH  093%=      5-min Rain = 0
KEN1 091022Z 15002KT M06/M07 A3029 RMK A01 T10591069  RH  093%=      5-min Rain = 0
KEN1 091023Z 16002KT M06/M07 A3029 RMK A01 T10581067  RH  093%=      5-min Rain = 0
KEN1 091024Z 18004KT M06/M07 A3029 RMK A01 T10581067  RH  093%=      5-min Rain = 0
KEN1 091025Z 18005KT M06/M07 A3029 RMK A01 T10591069  RH  093%=      5-min Rain = 0
KEN1 091026Z 19005KT M06/M07 A3029 RMK A01 T10601070  RH  093%=      5-min Rain = 0
KEN1 091027Z 19006KT M06/M07 A3029 RMK A01 T10611071  RH  093%=      5-min Rain = 0
KEN1 091028Z 19006KT M06/M07 A3029 RMK A01 T10621072  RH  093%=      5-min Rain = 0
KEN1 091029Z 20006KT M06/M07 A303 RMK A01 T10631073  RH  093%=      5-min Rain = 0
KEN1 091030Z 20006KT M06/M07 A303 RMK A01 T10641074  RH  093%=      5-min Rain = 0
KEN1 091031Z 20006KT M06/M07 A3029 RMK A01 T10641074  RH  093%=      5-min Rain = 0
KEN1 091032Z 20005KT M07/M08 A3029 RMK A01 T10651075  RH  093%=      5-min Rain = 0
KEN1 091033Z 21005KT M07/M08 A3029 RMK A01 T10651075  RH  093%=      5-min Rain = 0
KEN1 091034Z 20005KT M07/M07 A3029 RMK A01 T10651074  RH  093%=      5-min Rain = 0
KEN1 091035Z 20005KT M07/M07 A3029 RMK A01 T10651074  RH  093%=      5-min Rain = 0
KEN1 091036Z 20005KT M07/M07 A3029 RMK A01 T10651074  RH  093%=      5-min Rain = 0
KEN1 091037Z 20005KT M07/M07 A3029 RMK A01 T10651074  RH  094%=      5-min Rain = 0
KEN1 091038Z 20004KT M07/M07 A3029 RMK A01 T10651073  RH  094%=      5-min Rain = 0
KEN1 091039Z 20004KT M07/M07 A3029 RMK A01 T10651073  RH  094%=      5-min Rain = 0
KEN1 091040Z 20004KT M07/M07 A3029 RMK A01 T10651074  RH  094%=      5-min Rain = 0
KEN1 091041Z 20004KT M07/M07 A3029 RMK A01 T10651074  RH  094%=      5-min Rain = 0
KEN1 091042Z 20004KT M07/M08 A3029 RMK A01 T10661075  RH  093%=      5-min Rain = 0
KEN1 091043Z 20004KT M07/M08 A3029 RMK A01 T10661075  RH  093%=      5-min Rain = 0
KEN1 091044Z 21004KT M07/M08 A3029 RMK A01 T10661075  RH  093%=      5-min Rain = 0
KEN1 091045Z 21004KT M07/M08 A3029 RMK A01 T10661075  RH  093%=      5-min Rain = 0
KEN1 091046Z 21004KT M07/M08 A3029 RMK A01 T10661075  RH  093%=      5-min Rain = 0
KEN1 091047Z 21004KT M07/M08 A3029 RMK A01 T10661075  RH  093%=      5-min Rain = 0
KEN1 091048Z 21004KT M07/M08 A3029 RMK A01 T10671075  RH  093%=      5-min Rain = 0
KEN1 091049Z 21003KT M07/M08 A3029 RMK A01 T10671076  RH  093%=      5-min Rain = 0
KEN1 091050Z 21003KT M07/M08 A3029 RMK A01 T10671076  RH  093%=      5-min Rain = 0
KEN1 091051Z 21002KT M07/M08 A3029 RMK A01 T10671077  RH  093%=      5-min Rain = 0
KEN1 091052Z 21002KT M07/M08 A3029 RMK A01 T10681077  RH  093%=      5-min Rain = 0
KEN1 091053Z 21002KT M07/M08 A3029 RMK A01 T10681077  RH  093%=      5-min Rain = 0
KEN1 091054Z 21002KT M07/M08 A3029 RMK A01 T10681077  RH  093%=      5-min Rain = 0
KEN1 091055Z 21002KT M07/M08 A3029 RMK A01 T10681077  RH  093%=      5-min Rain = 0
KEN1 091056Z 21002KT M07/M08 A3029 RMK A01 T10681077  RH  093%=      5-min Rain = 0
KEN1 091057Z 21001KT M07/M08 A3029 RMK A01 T10681076  RH  094%=      5-min Rain = 0
KEN1 091058Z 21001KT M07/M08 A3029 RMK A01 T10671075  RH  094%=      5-min Rain = 0
KEN1 091059Z 21001KT M07/M08 A3029 RMK A01 T10661075  RH  094%=      5-min Rain = 0
KEN1 091100Z 18002KT M07/M07 A3029 RMK A01 T10661074  RH  094%=      5-min Rain = 0
KEN1 091101Z 18003KT M07/M07 A3029 RMK A01 T10661074  RH  094%=      5-min Rain = 0
KEN1 091102Z 18003KT M07/M08 A3029 RMK A01 T10671076  RH  094%=      5-min Rain = 0
KEN1 091103Z 19004KT M07/M08 A3029 RMK A01 T10671076  RH  094%=      5-min Rain = 0
KEN1 091104Z 19003KT M07/M08 A3029 RMK A01 T10671075  RH  094%=      5-min Rain = 0
KEN1 091105Z 18003KT M07/M07 A3029 RMK A01 T10651073  RH  094%=      5-min Rain = 0
KEN1 091106Z 18003KT M07/M07 A3029 RMK A01 T10651073  RH  094%=      5-min Rain = 0
KEN1 091107Z 18003KT M07/M07 A3029 RMK A01 T10651072  RH  094%=      5-min Rain = 0
KEN1 091108Z 19003KT M07/M07 A3029 RMK A01 T10651072  RH  094%=      5-min Rain = 0
KEN1 091109Z 19003KT M06/M07 A303 RMK A01 T10641072  RH  094%=      5-min Rain = 0
KEN1 091110Z 19002KT M06/M07 A303 RMK A01 T10641072  RH  094%=      5-min Rain = 0
KEN1 091111Z 20002KT M06/M07 A303 RMK A01 T10641072  RH  094%=      5-min Rain = 0
KEN1 091112Z 20001KT M06/M07 A303 RMK A01 T10641072  RH  094%=      5-min Rain = 0
KEN1 091113Z 20001KT M07/M07 A303 RMK A01 T10651073  RH  094%=      5-min Rain = 0
KEN1 091114Z 20002KT M07/M07 A303 RMK A01 T10651074  RH  094%=      5-min Rain = 0
KEN1 091115Z 20002KT M07/M07 A303 RMK A01 T10661074  RH  094%=      5-min Rain = 0
KEN1 091116Z 21002KT M07/M07 A303 RMK A01 T10651074  RH  094%=      5-min Rain = 0
KEN1 091117Z 22002KT M07/M08 A303 RMK A01 T10661075  RH  094%=      5-min Rain = 0
KEN1 091118Z 22003KT M07/M08 A303 RMK A01 T10661075  RH  093%=      5-min Rain = 0
KEN1 091119Z 22003KT M07/M08 A303 RMK A01 T10671076  RH  093%=      5-min Rain = 0
KEN1 091120Z 21003KT M07/M08 A303 RMK A01 T10671077  RH  093%=      5-min Rain = 0
KEN1 091121Z 21002KT M07/M08 A303 RMK A01 T10681077  RH  093%=      5-min Rain = 0
KEN1 091122Z 22003KT M07/M08 A303 RMK A01 T10681077  RH  093%=      5-min Rain = 0
KEN1 091123Z 23003KT M07/M08 A303 RMK A01 T10681077  RH  093%=      5-min Rain = 0
KEN1 091124Z 23003KT M07/M08 A303 RMK A01 T10681077  RH  093%=      5-min Rain = 0
KEN1 091125Z 22002KT M07/M08 A303 RMK A01 T10681076  RH  094%=      5-min Rain = 0
KEN1 091126Z 23002KT M07/M08 A303 RMK A01 T10681076  RH  094%=      5-min Rain = 0
KEN1 091127Z 22002KT M07/M08 A303 RMK A01 T10681076  RH  094%=      5-min Rain = 0
KEN1 091128Z 22003KT M07/M08 A303 RMK A01 T10671075  RH  094%=      5-min Rain = 0
KEN1 091129Z 22003KT M07/M07 A303 RMK A01 T10661074  RH  094%=      5-min Rain = 0
KEN1 091130Z 22004KT M07/M07 A303 RMK A01 T10661073  RH  095%=      5-min Rain = 0
KEN1 091131Z 22004KT M07/M07 A303 RMK A01 T10651072  RH  095%=      5-min Rain = 0
KEN1 091132Z 22003KT M07/M07 A303 RMK A01 T10651072  RH  095%=      5-min Rain = 0
KEN1 091133Z 22004KT M07/M07 A303 RMK A01 T10651073  RH  094%=      5-min Rain = 0
KEN1 091134Z 23004KT M07/M07 A303 RMK A01 T10651073  RH  094%=      5-min Rain = 0
KEN1 091135Z 24004KT M07/M07 A303 RMK A01 T10651073  RH  094%=      5-min Rain = 0
KEN1 091136Z 25004KT M07/M07 A303 RMK A01 T10661074  RH  094%=      5-min Rain = 0
KEN1 091137Z 25004KT M07/M07 A303 RMK A01 T10661074  RH  094%=      5-min Rain = 0
KEN1 091138Z 26005KT M07/M08 A3031 RMK A01 T10671075  RH  094%=      5-min Rain = 0
KEN1 091139Z 26005KT M07/M08 A3031 RMK A01 T10671076  RH  094%=      5-min Rain = 0
KEN1 091140Z 27004KT M07/M08 A3031 RMK A01 T10671076  RH  094%=      5-min Rain = 0
KEN1 091141Z 27004KT M07/M08 A3031 RMK A01 T10671076  RH  094%=      5-min Rain = 0
KEN1 091142Z 27004KT M07/M08 A3031 RMK A01 T10681076  RH  094%=      5-min Rain = 0
KEN1 091143Z 27004KT M07/M08 A3031 RMK A01 T10681077  RH  094%=      5-min Rain = 0
KEN1 091144Z 27003KT M07/M08 A3031 RMK A01 T10681077  RH  094%=      5-min Rain = 0
KEN1 091145Z 27003KT M07/M08 A3031 RMK A01 T10681077  RH  094%=      5-min Rain = 0
KEN1 091146Z 27003KT M07/M08 A3031 RMK A01 T10681077  RH  094%=      5-min Rain = 0
KEN1 091147Z 27003KT M07/M08 A3031 RMK A01 T10681077  RH  094%=      5-min Rain = 0
KEN1 091148Z 27002KT M07/M08 A3031 RMK A01 T10681077  RH  094%=      5-min Rain = 0
KEN1 091149Z 27002KT M07/M08 A3031 RMK A01 T10691077  RH  094%=      5-min Rain = 0
KEN1 091150Z 28002KT M07/M08 A3031 RMK A01 T10691077  RH  094%=      5-min Rain = 0
KEN1 091151Z 29002KT M07/M08 A3031 RMK A01 T10691077  RH  094%=      5-min Rain = 0
KEN1 091152Z 29002KT M07/M08 A3031 RMK A01 T10691077  RH  094%=      5-min Rain = 0
KEN1 091153Z 29001KT M07/M08 A3031 RMK A01 T10681077  RH  094%=      5-min Rain = 0
KEN1 091154Z 29001KT M07/M08 A3031 RMK A01 T10691077  RH  094%=      5-min Rain = 0
KEN1 091155Z 29001KT M07/M08 A3031 RMK A01 T10691077  RH  094%=      5-min Rain = 0
KEN1 091156Z 29001KT M07/M08 A3031 RMK A01 T10691077  RH  094%=      5-min Rain = 0
KEN1 091157Z 29001KT M07/M08 A3031 RMK A01 T10691078  RH  094%=      5-min Rain = 0
KEN1 091158Z 29001KT M07/M08 A3031 RMK A01 T10691077  RH  094%=      5-min Rain = 0
KEN1 091159Z 29001KT M07/M08 A3031 RMK A01 T10691078  RH  094%=      5-min Rain = 0
KEN1 091200Z 29000KT M07/M08 A3031 RMK A01 T10681076  RH  094%=      5-min Rain = 0
KEN1 091201Z 29000KT M07/M08 A3031 RMK A01 T10681076  RH  094%=      5-min Rain = 0
KEN1 091202Z 29000KT M07/M08 A3031 RMK A01 T10681076  RH  094%=      5-min Rain = 0
KEN1 091203Z 29000KT M07/M08 A3031 RMK A01 T10671075  RH  094%=      5-min Rain = 0
KEN1 091204Z 29001KT M07/M07 A3031 RMK A01 T10661074  RH  095%=      5-min Rain = 0
KEN1 091205Z 29001KT M07/M07 A3031 RMK A01 T10661073  RH  095%=      5-min Rain = 0
KEN1 091206Z 29001KT M07/M08 A3031 RMK A01 T10691078  RH  094%=      5-min Rain = 0
KEN1 091207Z 29001KT M07/M08 A3031 RMK A01 T10731084  RH  092%=      5-min Rain = 0
KEN1 091208Z 29002KT M08/M09 A3031 RMK A01 T10751087  RH  091%=      5-min Rain = 0
KEN1 091209Z 29002KT M08/M09 A3031 RMK A01 T10761088  RH  092%=      5-min Rain = 0
KEN1 091210Z 28002KT M08/M08 A3031 RMK A01 T10751084  RH  093%=      5-min Rain = 0
KEN1 091211Z 26002KT M07/M08 A3031 RMK A01 T10741083  RH  093%=      5-min Rain = 0
KEN1 091212Z 25002KT M08/M09 A3031 RMK A01 T10751085  RH  093%=      5-min Rain = 0
KEN1 091213Z 24002KT M08/M09 A3031 RMK A01 T10761086  RH  093%=      5-min Rain = 0
KEN1 091214Z 23002KT M08/M09 A3031 RMK A01 T10781088  RH  092%=      5-min Rain = 0
KEN1 091215Z 23002KT M08/M09 A3031 RMK A01 T10781089  RH  092%=      5-min Rain = 0
KEN1 091216Z 21001KT M08/M09 A3031 RMK A01 T10791090  RH  092%=      5-min Rain = 0
KEN1 091217Z 21002KT M08/M09 A3031 RMK A01 T10791089  RH  092%=      5-min Rain = 0
KEN1 091218Z 22002KT M08/M09 A3031 RMK A01 T10791089  RH  093%=      5-min Rain = 0
KEN1 091219Z 22002KT M08/M09 A3031 RMK A01 T10781087  RH  093%=      5-min Rain = 0
KEN1 091220Z 21001KT M08/M09 A3031 RMK A01 T10771086  RH  093%=      5-min Rain = 0
KEN1 091221Z 22001KT M08/M09 A3031 RMK A01 T10761085  RH  094%=      5-min Rain = 0
KEN1 091222Z 23002KT M08/M08 A3031 RMK A01 T10751083  RH  094%=      5-min Rain = 0
KEN1 091223Z 23001KT M07/M08 A3031 RMK A01 T10741081  RH  094%=      5-min Rain = 0
KEN1 091224Z 23001KT M07/M08 A3031 RMK A01 T10721079  RH  095%=      5-min Rain = 0
KEN1 091225Z 22001KT M07/M08 A3031 RMK A01 T10711078  RH  095%=      5-min Rain = 0
KEN1 091226Z 22002KT M07/M08 A3031 RMK A01 T10701077  RH  095%=      5-min Rain = 0
KEN1 091227Z 22002KT M07/M08 A3031 RMK A01 T10701077  RH  095%=      5-min Rain = 0
KEN1 091228Z 23002KT M07/M08 A3031 RMK A01 T10701078  RH  095%=      5-min Rain = 0
KEN1 091229Z 24001KT M07/M08 A3032 RMK A01 T10711079  RH  094%=      5-min Rain = 0
KEN1 091230Z 24001KT M07/M08 A3032 RMK A01 T10721081  RH  094%=      5-min Rain = 0
KEN1 091231Z 23001KT M07/M08 A3031 RMK A01 T10731082  RH  093%=      5-min Rain = 0
KEN1 091232Z 21001KT M07/M08 A3031 RMK A01 T10731083  RH  093%=      5-min Rain = 0
KEN1 091233Z 20002KT M07/M08 A3031 RMK A01 T10731083  RH  093%=      5-min Rain = 0
KEN1 091234Z 20002KT M07/M08 A3031 RMK A01 T10731082  RH  093%=      5-min Rain = 0
KEN1 091235Z 22002KT M07/M08 A3032 RMK A01 T10721080  RH  094%=      5-min Rain = 0
KEN1 091236Z 23002KT M07/M08 A3032 RMK A01 T10721080  RH  094%=      5-min Rain = 0
KEN1 091237Z 25001KT M07/M08 A3032 RMK A01 T10721080  RH  094%=      5-min Rain = 0
KEN1 091238Z 25002KT M07/M08 A3032 RMK A01 T10721080  RH  094%=      5-min Rain = 0
KEN1 091239Z 25002KT M07/M08 A3032 RMK A01 T10711079  RH  094%=      5-min Rain = 0
KEN1 091240Z 25002KT M07/M08 A3032 RMK A01 T10711079  RH  094%=      5-min Rain = 0
KEN1 091241Z 25002KT M07/M08 A3032 RMK A01 T10701078  RH  094%=      5-min Rain = 0
KEN1 091242Z 25002KT M07/M08 A3032 RMK A01 T10701078  RH  094%=      5-min Rain = 0
KEN1 091243Z 26002KT M07/M08 A3032 RMK A01 T10701078  RH  094%=      5-min Rain = 0
KEN1 091244Z 27002KT M07/M08 A3033 RMK A01 T10701078  RH  094%=      5-min Rain = 0
KEN1 091245Z 28002KT M07/M08 A3033 RMK A01 T10701078  RH  094%=      5-min Rain = 0
KEN1 091246Z 28002KT M07/M08 A3033 RMK A01 T10701078  RH  094%=      5-min Rain = 0
KEN1 091247Z 28003KT M07/M08 A3033 RMK A01 T10701078  RH  094%=      5-min Rain = 0
KEN1 091248Z 28003KT M07/M08 A3033 RMK A01 T10681076  RH  094%=      5-min Rain = 0
KEN1 091249Z 28003KT M07/M07 A3033 RMK A01 T10671074  RH  095%=      5-min Rain = 0
KEN1 091250Z 28003KT M07/M07 A3033 RMK A01 T10661073  RH  095%=      5-min Rain = 0
KEN1 091251Z 28003KT M07/M07 A3033 RMK A01 T10651072  RH  095%=      5-min Rain = 0
KEN1 091252Z 28003KT M07/M07 A3033 RMK A01 T10651071  RH  095%=      5-min Rain = 0
KEN1 091253Z 28003KT M06/M07 A3033 RMK A01 T10641071  RH  095%=      5-min Rain = 0
KEN1 091254Z 28003KT M06/M07 A3033 RMK A01 T10641071  RH  095%=      5-min Rain = 0
KEN1 091255Z 28004KT M06/M07 A3033 RMK A01 T10641071  RH  095%=      5-min Rain = 0
KEN1 091256Z 27003KT M06/M07 A3033 RMK A01 T10631071  RH  094%=      5-min Rain = 0
KEN1 091257Z 27003KT M06/M07 A3033 RMK A01 T10641072  RH  094%=      5-min Rain = 0
KEN1 091258Z 27003KT M06/M07 A3033 RMK A01 T10641072  RH  094%=      5-min Rain = 0
KEN1 091259Z 26003KT M06/M07 A3033 RMK A01 T10641073  RH  094%=      5-min Rain = 0
KEN1 091300Z 26003KT M06/M07 A3033 RMK A01 T10641073  RH  093%=      5-min Rain = 0
KEN1 091301Z 25003KT M07/M07 A3033 RMK A01 T10651074  RH  093%=      5-min Rain = 0
KEN1 091302Z 25002KT M07/M07 A3033 RMK A01 T10651074  RH  093%=      5-min Rain = 0
KEN1 091303Z 25002KT M07/M08 A3033 RMK A01 T10651075  RH  093%=      5-min Rain = 0
KEN1 091304Z 25002KT M07/M08 A3033 RMK A01 T10661076  RH  093%=      5-min Rain = 0
KEN1 091305Z 24002KT M07/M08 A3033 RMK A01 T10661076  RH  093%=      5-min Rain = 0
KEN1 091306Z 23001KT M07/M08 A3033 RMK A01 T10661076  RH  093%=      5-min Rain = 0
KEN1 091307Z 22001KT M07/M08 A3033 RMK A01 T10661076  RH  093%=      5-min Rain = 0
KEN1 091308Z 22001KT M07/M08 A3033 RMK A01 T10671078  RH  093%=      5-min Rain = 0
KEN1 091309Z 24001KT M07/M08 A3033 RMK A01 T10671077  RH  093%=      5-min Rain = 0
KEN1 091310Z 24001KT M07/M08 A3033 RMK A01 T10661076  RH  093%=      5-min Rain = 0
KEN1 091311Z 26002KT M07/M07 A3033 RMK A01 T10651074  RH  094%=      5-min Rain = 0
KEN1 091312Z 25002KT M06/M07 A3033 RMK A01 T10641072  RH  094%=      5-min Rain = 0
KEN1 091313Z 24002KT M06/M07 A3033 RMK A01 T10631071  RH  094%=      5-min Rain = 0
KEN1 091314Z 22003KT M06/M07 A3033 RMK A01 T10621070  RH  095%=      5-min Rain = 0
KEN1 091315Z 22002KT M06/M07 A3033 RMK A01 T10631071  RH  094%=      5-min Rain = 0
KEN1 091316Z 22002KT M07/M08 A3033 RMK A01 T10671076  RH  093%=      5-min Rain = 0
KEN1 091317Z 22002KT M07/M08 A3033 RMK A01 T10701081  RH  091%=      5-min Rain = 0
KEN1 091318Z 23002KT M07/M09 A3033 RMK A01 T10721086  RH  090%=      5-min Rain = 0
KEN1 091319Z 22002KT M08/M09 A3033 RMK A01 T10751089  RH  090%=      5-min Rain = 0
KEN1 091320Z 21002KT M08/M09 A3033 RMK A01 T10761090  RH  090%=      5-min Rain = 0
KEN1 091321Z 21002KT M08/M09 A3033 RMK A01 T10771090  RH  090%=      5-min Rain = 0
KEN1 091322Z 21003KT M08/M09 A3034 RMK A01 T10781090  RH  091%=      5-min Rain = 0
KEN1 091323Z 21003KT M08/M09 A3034 RMK A01 T10781089  RH  091%=      5-min Rain = 0
KEN1 091324Z 21003KT M08/M09 A3034 RMK A01 T10771089  RH  092%=      5-min Rain = 0
KEN1 091325Z 21004KT M08/M09 A3034 RMK A01 T10781088  RH  092%=      5-min Rain = 0
KEN1 091326Z 21004KT M08/M09 A3034 RMK A01 T10771088  RH  092%=      5-min Rain = 0
KEN1 091327Z 21004KT M08/M09 A3034 RMK A01 T10771087  RH  093%=      5-min Rain = 0
KEN1 091328Z 21004KT M08/M09 A3034 RMK A01 T10771087  RH  093%=      5-min Rain = 0
KEN1 091329Z 21004KT M08/M09 A3034 RMK A01 T10771087  RH  093%=      5-min Rain = 0
KEN1 091330Z 21004KT M08/M09 A3034 RMK A01 T10771087  RH  093%=      5-min Rain = 0
KEN1 091331Z 21004KT M08/M09 A3034 RMK A01 T10771087  RH  093%=      5-min Rain = 0
KEN1 091332Z 22004KT M08/M09 A3034 RMK A01 T10771087  RH  093%=      5-min Rain = 0
KEN1 091333Z 21003KT M08/M09 A3034 RMK A01 T10771086  RH  093%=      5-min Rain = 0
KEN1 091334Z 21003KT M08/M09 A3034 RMK A01 T10761085  RH  093%=      5-min Rain = 0
KEN1 091335Z 21003KT M08/M09 A3034 RMK A01 T10761085  RH  093%=      5-min Rain = 0
KEN1 091336Z 21003KT M08/M09 A3034 RMK A01 T10761085  RH  093%=      5-min Rain = 0
KEN1 091337Z 21003KT M08/M09 A3034 RMK A01 T10761085  RH  093%=      5-min Rain = 0
KEN1 091338Z 22003KT M08/M09 A3034 RMK A01 T10761086  RH  093%=      5-min Rain = 0
KEN1 091339Z 22003KT M08/M09 A3034 RMK A01 T10761086  RH  093%=      5-min Rain = 0
KEN1 091340Z 23003KT M08/M09 A3035 RMK A01 T10771086  RH  093%=      5-min Rain = 0
KEN1 091341Z 22003KT M08/M09 A3035 RMK A01 T10771087  RH  093%=      5-min Rain = 0
KEN1 091342Z 22003KT M08/M09 A3034 RMK A01 T10771087  RH  093%=      5-min Rain = 0
KEN1 091343Z 22004KT M08/M09 A3034 RMK A01 T10771086  RH  093%=      5-min Rain = 0
KEN1 091344Z 23004KT M08/M09 A3034 RMK A01 T10761086  RH  093%=      5-min Rain = 0
KEN1 091345Z 23004KT M08/M09 A3034 RMK A01 T10771086  RH  093%=      5-min Rain = 0
KEN1 091346Z 23004KT M08/M09 A3034 RMK A01 T10761086  RH  093%=      5-min Rain = 0
KEN1 091347Z 23004KT M08/M08 A3034 RMK A01 T10751084  RH  093%=      5-min Rain = 0
KEN1 091348Z 23004KT M08/M08 A3034 RMK A01 T10751083  RH  094%=      5-min Rain = 0
KEN1 091349Z 23004KT M07/M08 A3034 RMK A01 T10731081  RH  094%=      5-min Rain = 0
KEN1 091350Z 22004KT M07/M08 A3034 RMK A01 T10721080  RH  094%=      5-min Rain = 0
KEN1 091351Z 22004KT M07/M08 A3034 RMK A01 T10711078  RH  094%=      5-min Rain = 0
KEN1 091352Z 22004KT M07/M08 A3034 RMK A01 T10701078  RH  095%=      5-min Rain = 0
KEN1 091353Z 22003KT M07/M08 A3034 RMK A01 T10691077  RH  095%=      5-min Rain = 0
KEN1 091354Z 22003KT M07/M08 A3034 RMK A01 T10691076  RH  094%=      5-min Rain = 0
KEN1 091355Z 22003KT M07/M08 A3034 RMK A01 T10691077  RH  094%=      5-min Rain = 0
KEN1 091356Z 23003KT M07/M08 A3034 RMK A01 T10701078  RH  094%=      5-min Rain = 0
KEN1 091357Z 23003KT M07/M08 A3035 RMK A01 T10701079  RH  093%=      5-min Rain = 0
KEN1 091358Z 24003KT M07/M08 A3035 RMK A01 T10701079  RH  093%=      5-min Rain = 0
KEN1 091359Z 23003KT M07/M08 A3035 RMK A01 T10711080  RH  093%=      5-min Rain = 0
KEN1 091400Z 23003KT M07/M08 A3035 RMK A01 T10701080  RH  093%=      5-min Rain = 0
KEN1 091401Z 23004KT M07/M08 A3035 RMK A01 T10701080  RH  093%=      5-min Rain = 0
KEN1 091402Z 23004KT M07/M08 A3035 RMK A01 T10701080  RH  093%=      5-min Rain = 0
KEN1 091403Z 23004KT M07/M08 A3035 RMK A01 T10711081  RH  093%=      5-min Rain = 0
KEN1 091404Z 22003KT M07/M08 A3035 RMK A01 T10721082  RH  093%=      5-min Rain = 0
KEN1 091405Z 22003KT M07/M08 A3035 RMK A01 T10721082  RH  092%=      5-min Rain = 0
KEN1 091406Z 22003KT M07/M08 A3035 RMK A01 T10721083  RH  092%=      5-min Rain = 0
KEN1 091407Z 22003KT M07/M08 A3035 RMK A01 T10731084  RH  092%=      5-min Rain = 0
KEN1 091408Z 22003KT M07/M08 A3035 RMK A01 T10731084  RH  092%=      5-min Rain = 0
KEN1 091409Z 22003KT M07/M08 A3035 RMK A01 T10731084  RH  092%=      5-min Rain = 0
KEN1 091410Z 22003KT M07/M08 A3035 RMK A01 T10721083  RH  092%=      5-min Rain = 0
KEN1 091411Z 22003KT M07/M08 A3035 RMK A01 T10721083  RH  092%=      5-min Rain = 0
KEN1 091412Z 22003KT M07/M08 A3035 RMK A01 T10721083  RH  092%=      5-min Rain = 0
KEN1 091413Z 22003KT M07/M08 A3035 RMK A01 T10721082  RH  092%=      5-min Rain = 0
KEN1 091414Z 21002KT M07/M08 A3035 RMK A01 T10711082  RH  092%=      5-min Rain = 0
KEN1 091415Z 21003KT M07/M08 A3035 RMK A01 T10701081  RH  092%=      5-min Rain = 0
KEN1 091416Z 21003KT M07/M08 A3035 RMK A01 T10701080  RH  092%=      5-min Rain = 0
KEN1 091417Z 22003KT M07/M08 A3035 RMK A01 T10691080  RH  092%=      5-min Rain = 0
KEN1 091418Z 22003KT M07/M08 A3035 RMK A01 T10681079  RH  092%=      5-min Rain = 0
KEN1 091419Z 23003KT M07/M08 A3035 RMK A01 T10681078  RH  092%=      5-min Rain = 0
KEN1 091420Z 23003KT M07/M08 A3035 RMK A01 T10671078  RH  092%=      5-min Rain = 0
KEN1 091421Z 23003KT M07/M08 A3035 RMK A01 T10671077  RH  092%=      5-min Rain = 0
KEN1 091422Z 23003KT M07/M08 A3036 RMK A01 T10661077  RH  092%=      5-min Rain = 0
KEN1 091423Z 23002KT M07/M08 A3036 RMK A01 T10661077  RH  092%=      5-min Rain = 0
KEN1 091424Z 23002KT M07/M08 A3036 RMK A01 T10651077  RH  092%=      5-min Rain = 0
KEN1 091425Z 23002KT M07/M08 A3036 RMK A01 T10651077  RH  091%=      5-min Rain = 0
KEN1 091426Z 23003KT M07/M08 A3036 RMK A01 T10651077  RH  091%=      5-min Rain = 0
KEN1 091427Z 22003KT M06/M08 A3036 RMK A01 T10641076  RH  091%=      5-min Rain = 0
KEN1 091428Z 22003KT M06/M08 A3036 RMK A01 T10641076  RH  091%=      5-min Rain = 0
KEN1 091429Z 22003KT M06/M08 A3036 RMK A01 T10641076  RH  091%=      5-min Rain = 0
KEN1 091430Z 23003KT M06/M07 A3036 RMK A01 T10631074  RH  092%=      5-min Rain = 0
KEN1 091431Z 23003KT M06/M07 A3036 RMK A01 T10621073  RH  092%=      5-min Rain = 0
KEN1 091432Z 23002KT M06/M07 A3036 RMK A01 T10611072  RH  092%=      5-min Rain = 0
KEN1 091433Z 23003KT M06/M07 A3036 RMK A01 T10601071  RH  092%=      5-min Rain = 0
KEN1 091434Z 23003KT M06/M07 A3036 RMK A01 T10591070  RH  092%=      5-min Rain = 0
KEN1 091435Z 23003KT M06/M07 A3036 RMK A01 T10591069  RH  092%=      5-min Rain = 0
KEN1 091436Z 23002KT M06/M07 A3036 RMK A01 T10571068  RH  092%=      5-min Rain = 0
KEN1 091437Z 22002KT M06/M07 A3036 RMK A01 T10571067  RH  092%=      5-min Rain = 0
KEN1 091438Z 23002KT M06/M07 A3036 RMK A01 T10561066  RH  092%=      5-min Rain = 0
KEN1 091439Z 23002KT M06/M07 A3036 RMK A01 T10551065  RH  092%=      5-min Rain = 0
KEN1 091440Z 21002KT M05/M06 A3036 RMK A01 T10531064  RH  092%=      5-min Rain = 0
KEN1 091441Z 22002KT M05/M06 A3036 RMK A01 T10521063  RH  092%=      5-min Rain = 0
KEN1 091442Z 21002KT M05/M06 A3036 RMK A01 T10511062  RH  092%=      5-min Rain = 0
KEN1 091443Z 22002KT M05/M06 A3036 RMK A01 T10501061  RH  092%=      5-min Rain = 0
KEN1 091444Z 22002KT M05/M06 A3036 RMK A01 T10491061  RH  092%=      5-min Rain = 0
KEN1 091445Z 22002KT M05/M06 A3036 RMK A01 T10481059  RH  092%=      5-min Rain = 0
KEN1 091446Z 23002KT M05/M06 A3036 RMK A01 T10471059  RH  092%=      5-min Rain = 0
KEN1 091447Z 24002KT M05/M06 A3036 RMK A01 T10471059  RH  091%=      5-min Rain = 0
KEN1 091448Z 25002KT M05/M06 A3036 RMK A01 T10461059  RH  091%=      5-min Rain = 0
KEN1 091449Z 24002KT M05/M06 A3036 RMK A01 T10451058  RH  091%=      5-min Rain = 0
KEN1 091450Z 24002KT M04/M06 A3036 RMK A01 T10441057  RH  091%=      5-min Rain = 0
KEN1 091451Z 23002KT M04/M06 A3036 RMK A01 T10431057  RH  090%=      5-min Rain = 0
KEN1 091452Z 23002KT M04/M06 A3036 RMK A01 T10431057  RH  090%=      5-min Rain = 0
KEN1 091453Z 22002KT M04/M06 A3036 RMK A01 T10421057  RH  090%=      5-min Rain = 0
KEN1 091454Z 23002KT M04/M06 A3036 RMK A01 T10421056  RH  089%=      5-min Rain = 0
KEN1 091455Z 21002KT M04/M06 A3036 RMK A01 T10411056  RH  089%=      5-min Rain = 0
KEN1 091456Z 22002KT M04/M06 A3036 RMK A01 T10401055  RH  089%=      5-min Rain = 0
KEN1 091457Z 20002KT M04/M06 A3036 RMK A01 T10401056  RH  089%=      5-min Rain = 0
KEN1 091458Z 23003KT M04/M06 A3036 RMK A01 T10401055  RH  089%=      5-min Rain = 0
KEN1 091459Z 23002KT M04/M06 A3036 RMK A01 T10401056  RH  088%=      5-min Rain = 0
KEN1 091500Z 21002KT M04/M06 A3036 RMK A01 T10391056  RH  088%=      5-min Rain = 0
KEN1 091501Z 22003KT M04/M06 A3036 RMK A01 T10391055  RH  088%=      5-min Rain = 0
KEN1 091502Z 22003KT M04/M05 A3036 RMK A01 T10381054  RH  089%=      5-min Rain = 0
KEN1 091503Z 21003KT M04/M05 A3036 RMK A01 T10371053  RH  089%=      5-min Rain = 0
KEN1 091504Z 20003KT M04/M05 A3036 RMK A01 T10371053  RH  089%=      5-min Rain = 0
KEN1 091505Z 19003KT M04/M05 A3036 RMK A01 T10371053  RH  089%=      5-min Rain = 0
KEN1 091506Z 20003KT M04/M05 A3036 RMK A01 T10361053  RH  088%=      5-min Rain = 0
KEN1 091507Z 20003KT M04/M05 A3036 RMK A01 T10361053  RH  088%=      5-min Rain = 0
KEN1 091508Z 21003KT M04/M05 A3036 RMK A01 T10361053  RH  088%=      5-min Rain = 0
KEN1 091509Z 20003KT M04/M05 A3036 RMK A01 T10361053  RH  088%=      5-min Rain = 0
KEN1 091510Z 21002KT M04/M05 A3036 RMK A01 T10361053  RH  088%=      5-min Rain = 0
KEN1 091511Z 21002KT M04/M05 A3036 RMK A01 T10351051  RH  088%=      5-min Rain = 0
KEN1 091512Z 21002KT M04/M05 A3036 RMK A01 T10351051  RH  088%=      5-min Rain = 0
KEN1 091513Z 21002KT M03/M05 A3036 RMK A01 T10331049  RH  089%=      5-min Rain = 0
KEN1 091514Z 21002KT M03/M05 A3036 RMK A01 T10331050  RH  088%=      5-min Rain = 0
KEN1 091515Z 22002KT M03/M05 A3037 RMK A01 T10331050  RH  088%=      5-min Rain = 0
KEN1 091516Z 22002KT M03/M05 A3037 RMK A01 T10321049  RH  088%=      5-min Rain = 0
KEN1 091517Z 23002KT M03/M05 A3037 RMK A01 T10311048  RH  088%=      5-min Rain = 0
KEN1 091518Z 23002KT M03/M05 A3037 RMK A01 T10301047  RH  088%=      5-min Rain = 0
KEN1 091519Z 23003KT M03/M05 A3037 RMK A01 T10291045  RH  089%=      5-min Rain = 0
KEN1 091520Z 24003KT M03/M05 A3037 RMK A01 T10291045  RH  089%=      5-min Rain = 0
KEN1 091521Z 24003KT M03/M04 A3036 RMK A01 T10281044  RH  088%=      5-min Rain = 0
KEN1 091522Z 23003KT M03/M04 A3036 RMK A01 T10271044  RH  088%=      5-min Rain = 0
KEN1 091523Z 25003KT M03/M05 A3036 RMK A01 T10271045  RH  087%=      5-min Rain = 0
KEN1 091524Z 24003KT M03/M05 A3036 RMK A01 T10271045  RH  088%=      5-min Rain = 0
KEN1 091525Z 24003KT M03/M04 A3036 RMK A01 T10261044  RH  088%=      5-min Rain = 0
KEN1 091526Z 24003KT M03/M04 A3036 RMK A01 T10251043  RH  088%=      5-min Rain = 0
KEN1 091527Z 25003KT M02/M04 A3037 RMK A01 T10241042  RH  088%=      5-min Rain = 0
KEN1 091528Z 25003KT M02/M04 A3037 RMK A01 T10241042  RH  088%=      5-min Rain = 0
KEN1 091529Z 26002KT M02/M04 A3037 RMK A01 T10231041  RH  087%=      5-min Rain = 0
KEN1 091530Z 25003KT M02/M04 A3037 RMK A01 T10221040  RH  088%=      5-min Rain = 0
KEN1 091531Z 25004KT M02/M04 A3037 RMK A01 T10211039  RH  087%=      5-min Rain = 0
KEN1 091532Z 26003KT M02/M04 A3037 RMK A01 T10211041  RH  086%=      5-min Rain = 0
KEN1 091533Z 26004KT M02/M04 A3037 RMK A01 T10201040  RH  086%=      5-min Rain = 0
KEN1 091534Z 26003KT M02/M04 A3037 RMK A01 T10201040  RH  086%=      5-min Rain = 0
KEN1 091535Z 26004KT M02/M04 A3037 RMK A01 T10191039  RH  086%=      5-min Rain = 0
KEN1 091536Z 26003KT M02/M04 A3037 RMK A01 T10181039  RH  086%=      5-min Rain = 0
KEN1 091537Z 26004KT M02/M04 A3037 RMK A01 T10181038  RH  086%=      5-min Rain = 0
KEN1 091538Z 26004KT M02/M04 A3037 RMK A01 T10181038  RH  086%=      5-min Rain = 0
KEN1 091539Z 25004KT M02/M04 A3037 RMK A01 T10171038  RH  086%=      5-min Rain = 0
KEN1 091540Z 26003KT M02/M04 A3037 RMK A01 T10161037  RH  086%=      5-min Rain = 0
KEN1 091541Z 27004KT M02/M04 A3037 RMK A01 T10151036  RH  085%=      5-min Rain = 0
KEN1 091542Z 26004KT M01/M04 A3037 RMK A01 T10141036  RH  085%=      5-min Rain = 0
KEN1 091543Z 26004KT M01/M04 A3037 RMK A01 T10141036  RH  085%=      5-min Rain = 0
KEN1 091544Z 27003KT M01/M04 A3038 RMK A01 T10131035  RH  085%=      5-min Rain = 0
KEN1 091545Z 26003KT M01/M03 A3038 RMK A01 T10121033  RH  085%=      5-min Rain = 0
KEN1 091546Z 28003KT M01/M03 A3038 RMK A01 T10111033  RH  085%=      5-min Rain = 0
KEN1 091547Z 26003KT M01/M03 A3038 RMK A01 T10101032  RH  085%=      5-min Rain = 0
KEN1 091548Z 26003KT M01/M03 A3038 RMK A01 T10081031  RH  085%=      5-min Rain = 0
KEN1 091549Z 26003KT M01/M03 A3038 RMK A01 T10071031  RH  084%=      5-min Rain = 0
KEN1 091550Z 25003KT M01/M03 A3038 RMK A01 T10061031  RH  083%=      5-min Rain = 0
KEN1 091551Z 26002KT M01/M03 A3038 RMK A01 T10051030  RH  084%=      5-min Rain = 0
KEN1 091552Z 27002KT M00/M03 A3038 RMK A01 T10041030  RH  083%=      5-min Rain = 0
KEN1 091553Z 27002KT M00/M03 A3038 RMK A01 T10041031  RH  082%=      5-min Rain = 0
KEN1 091554Z 30002KT M00/M03 A3038 RMK A01 T10041031  RH  082%=      5-min Rain = 0
KEN1 091555Z 31002KT M00/M03 A3038 RMK A01 T10031033  RH  080%=      5-min Rain = 0
KEN1 091556Z 31002KT M00/M03 A3038 RMK A01 T10011031  RH  080%=      5-min Rain = 0
KEN1 091557Z 29002KT 00/03 A3038 RMK A01 T00000-30  RH  080%=      5-min Rain = 0
KEN1 091558Z 28002KT 00/M03 A3038 RMK A01 T00011030  RH  080%=      5-min Rain = 0
KEN1 091559Z 28002KT 00/M03 A3038 RMK A01 T00021029  RH  079%=      5-min Rain = 0
KEN1 091600Z 30001KT 00/M03 A3038 RMK A01 T00031030  RH  078%=      5-min Rain = 0
KEN1 091601Z 29002KT 00/M03 A3038 RMK A01 T00031031  RH  078%=      5-min Rain = 0
KEN1 091602Z 26002KT 00/M03 A3038 RMK A01 T00041030  RH  078%=      5-min Rain = 0
KEN1 091603Z 24002KT 01/M03 A3038 RMK A01 T00051029  RH  078%=      5-min Rain = 0
KEN1 091604Z 26002KT 01/M03 A3038 RMK A01 T00051031  RH  077%=      5-min Rain = 0
KEN1 091605Z 28003KT 01/M03 A3038 RMK A01 T00051031  RH  077%=      5-min Rain = 0
KEN1 091606Z 27002KT 01/M03 A3038 RMK A01 T00061032  RH  076%=      5-min Rain = 0
KEN1 091607Z 27002KT 01/M03 A3038 RMK A01 T00061032  RH  075%=      5-min Rain = 0
KEN1 091608Z 25000KT 01/M03 A3038 RMK A01 T00061034  RH  075%=      5-min Rain = 0
KEN1 091609Z 00000KT 01/M03 A3038 RMK A01 T00071034  RH  074%=      5-min Rain = 0
KEN1 091610Z 36000KT 01/M03 A3038 RMK A01 T00101032  RH  074%=      5-min Rain = 0
KEN1 091611Z 00000KT 01/M03 A3038 RMK A01 T00141030  RH  073%=      5-min Rain = 0
KEN1 091612Z 00000KT 02/M03 A3038 RMK A01 T00181027  RH  072%=      5-min Rain = 0
KEN1 091613Z 24001KT 02/M03 A3038 RMK A01 T00211028  RH  070%=      5-min Rain = 0
KEN1 091614Z 26001KT 02/M04 A3038 RMK A01 T00201035  RH  067%=      5-min Rain = 0
KEN1 091615Z 24003KT 02/M04 A3038 RMK A01 T00191035  RH  068%=      5-min Rain = 0
KEN1 091616Z 23002KT 02/M04 A3038 RMK A01 T00171035  RH  068%=      5-min Rain = 0
KEN1 091617Z 25001KT 02/M04 A3038 RMK A01 T00161035  RH  069%=      5-min Rain = 0
KEN1 091618Z 25001KT 02/M04 A3038 RMK A01 T00151035  RH  069%=      5-min Rain = 0
KEN1 091619Z 25000KT 02/M03 A3038 RMK A01 T00151034  RH  070%=      5-min Rain = 0
KEN1 091620Z 30001KT 02/M03 A3038 RMK A01 T00161034  RH  070%=      5-min Rain = 0
KEN1 091621Z 30000KT 02/M03 A3038 RMK A01 T00171034  RH  069%=      5-min Rain = 0
KEN1 091622Z 28001KT 02/M03 A3038 RMK A01 T00181034  RH  069%=      5-min Rain = 0
KEN1 091623Z 26001KT 02/M03 A3038 RMK A01 T00201032  RH  069%=      5-min Rain = 0
KEN1 091624Z 23001KT 02/M03 A3038 RMK A01 T00201034  RH  067%=      5-min Rain = 0
KEN1 091625Z 24002KT 02/M03 A3038 RMK A01 T00221034  RH  067%=      5-min Rain = 0
KEN1 091626Z 23001KT 02/M04 A3038 RMK A01 T00221035  RH  066%=      5-min Rain = 0
KEN1 091627Z 27000KT 02/M04 A3038 RMK A01 T00231035  RH  065%=      5-min Rain = 0
KEN1 091628Z 26003KT 02/M04 A3038 RMK A01 T00241035  RH  065%=      5-min Rain = 0
KEN1 091629Z 27002KT 03/M04 A3038 RMK A01 T00251036  RH  064%=      5-min Rain = 0
KEN1 091630Z 26003KT 02/M04 A3038 RMK A01 T00231037  RH  064%=      5-min Rain = 0
KEN1 091631Z 28003KT 02/M04 A3038 RMK A01 T00231037  RH  065%=      5-min Rain = 0
KEN1 091632Z 30003KT 02/M04 A3038 RMK A01 T00231035  RH  066%=      5-min Rain = 0
KEN1 091633Z 32002KT 02/M04 A3038 RMK A01 T00231035  RH  066%=      5-min Rain = 0
KEN1 091634Z 32001KT 02/M04 A3038 RMK A01 T00231035  RH  065%=      5-min Rain = 0
KEN1 091635Z 35000KT 02/M04 A3038 RMK A01 T00231037  RH  065%=      5-min Rain = 0
KEN1 091636Z 31001KT 02/M04 A3038 RMK A01 T00241035  RH  065%=      5-min Rain = 0
KEN1 091637Z 32003KT 03/M03 A3038 RMK A01 T00261034  RH  064%=      5-min Rain = 0
KEN1 091638Z 32002KT 03/M04 A3038 RMK A01 T00261036  RH  064%=      5-min Rain = 0
KEN1 091639Z 31001KT 02/M04 A3038 RMK A01 T00241037  RH  064%=      5-min Rain = 0
KEN1 091640Z 00001KT 03/M04 A3038 RMK A01 T00251035  RH  065%=      5-min Rain = 0
KEN1 091641Z 03001KT 03/M04 A3038 RMK A01 T00261036  RH  064%=      5-min Rain = 0
KEN1 091642Z 35001KT 03/M04 A3038 RMK A01 T00271036  RH  063%=      5-min Rain = 0
KEN1 091643Z 35001KT 03/M04 A3038 RMK A01 T00281036  RH  063%=      5-min Rain = 0
KEN1 091644Z 29001KT 03/M04 A3039 RMK A01 T00281036  RH  063%=      5-min Rain = 0
KEN1 091645Z 26001KT 03/M04 A3039 RMK A01 T00291036  RH  062%=      5-min Rain = 0
KEN1 091646Z 25002KT 03/M04 A3039 RMK A01 T00301035  RH  062%=      5-min Rain = 0
KEN1 091647Z 27002KT 03/M04 A3039 RMK A01 T00301035  RH  062%=      5-min Rain = 0
KEN1 091648Z 24003KT 03/M03 A3039 RMK A01 T00301034  RH  063%=      5-min Rain = 0
KEN1 091649Z 29003KT 03/M03 A3039 RMK A01 T00301034  RH  063%=      5-min Rain = 0
KEN1 091650Z 32004KT 03/M03 A3039 RMK A01 T00291034  RH  063%=      5-min Rain = 0
KEN1 091651Z 32003KT 03/M04 A3039 RMK A01 T00281035  RH  063%=      5-min Rain = 0
KEN1 091652Z 32002KT 03/M04 A3039 RMK A01 T00281036  RH  063%=      5-min Rain = 0
KEN1 091653Z 34001KT 03/M04 A3039 RMK A01 T00281036  RH  063%=      5-min Rain = 0
KEN1 091654Z 32000KT 03/M04 A3039 RMK A01 T00281036  RH  063%=      5-min Rain = 0
KEN1 091655Z 00000KT 03/M03 A3039 RMK A01 T00311032  RH  063%=      5-min Rain = 0
KEN1 091656Z 03001KT 03/M03 A3039 RMK A01 T00341032  RH  062%=      5-min Rain = 0
KEN1 091657Z 35001KT 03/M03 A3039 RMK A01 T00341034  RH  061%=      5-min Rain = 0
KEN1 091658Z 33002KT 03/M04 A3039 RMK A01 T00321035  RH  061%=      5-min Rain = 0
KEN1 091659Z 31002KT 03/M04 A3039 RMK A01 T00321035  RH  061%=      5-min Rain = 0
KEN1 091700Z 35001KT 03/M04 A3039 RMK A01 T00301036  RH  062%=      5-min Rain = 0
KEN1 091701Z 33001KT 03/M03 A3038 RMK A01 T00301034  RH  063%=      5-min Rain = 0
KEN1 091702Z 31001KT 03/M03 A3038 RMK A01 T00311034  RH  062%=      5-min Rain = 0
KEN1 091703Z 35001KT 03/M04 A3038 RMK A01 T00311036  RH  061%=      5-min Rain = 0
KEN1 091704Z 02001KT 03/M04 A3038 RMK A01 T00321036  RH  061%=      5-min Rain = 0
KEN1 091705Z 01001KT 03/M04 A3038 RMK A01 T00331035  RH  061%=      5-min Rain = 0
KEN1 091706Z 01001KT 03/M04 A3038 RMK A01 T00331035  RH  061%=      5-min Rain = 0
KEN1 091707Z 00002KT 03/M04 A3038 RMK A01 T00331035  RH  061%=      5-min Rain = 0
KEN1 091708Z 00001KT 03/M03 A3038 RMK A01 T00331034  RH  061%=      5-min Rain = 0
KEN1 091709Z 34002KT 03/M04 A3038 RMK A01 T00331035  RH  061%=      5-min Rain = 0
KEN1 091710Z 00001KT 03/M04 A3038 RMK A01 T00331035  RH  061%=      5-min Rain = 0
KEN1 091711Z 33002KT 03/M03 A3038 RMK A01 T00331034  RH  061%=      5-min Rain = 0
KEN1 091712Z 28002KT 03/M03 A3038 RMK A01 T00341033  RH  062%=      5-min Rain = 0
KEN1 091713Z 31001KT 04/M03 A3038 RMK A01 T00351033  RH  061%=      5-min Rain = 0
KEN1 091714Z 34001KT 04/M03 A3038 RMK A01 T00351033  RH  061%=      5-min Rain = 0
KEN1 091715Z 03001KT 04/M03 A3038 RMK A01 T00371031  RH  061%=      5-min Rain = 0
KEN1 091716Z 06001KT 04/M03 A3038 RMK A01 T00391032  RH  060%=      5-min Rain = 0
KEN1 091717Z 26002KT 04/M03 A3038 RMK A01 T00401033  RH  059%=      5-min Rain = 0
KEN1 091718Z 24001KT 04/M03 A3038 RMK A01 T00401033  RH  059%=      5-min Rain = 0
KEN1 091719Z 22001KT 04/M03 A3038 RMK A01 T00391034  RH  059%=      5-min Rain = 0
KEN1 091720Z 25001KT 04/M03 A3038 RMK A01 T00391033  RH  059%=      5-min Rain = 0
KEN1 091721Z 33002KT 04/M03 A3038 RMK A01 T00401033  RH  059%=      5-min Rain = 0
KEN1 091722Z 34001KT 04/M03 A3038 RMK A01 T00401034  RH  058%=      5-min Rain = 0
KEN1 091723Z 00000KT 04/M04 A3038 RMK A01 T00401035  RH  058%=      5-min Rain = 0
KEN1 091724Z 26002KT 04/M04 A3038 RMK A01 T00421035  RH  057%=      5-min Rain = 0
KEN1 091725Z 28002KT 05/M04 A3038 RMK A01 T00451035  RH  056%=      5-min Rain = 0
KEN1 091726Z 31002KT 05/M04 A3038 RMK A01 T00451037  RH  055%=      5-min Rain = 0
KEN1 091727Z 33001KT 04/M04 A3038 RMK A01 T00441038  RH  055%=      5-min Rain = 0
KEN1 091728Z 34000KT 04/M04 A3038 RMK A01 T00421039  RH  056%=      5-min Rain = 0
KEN1 091729Z 31001KT 04/M04 A3038 RMK A01 T00431038  RH  056%=      5-min Rain = 0
KEN1 091730Z 32001KT 04/M04 A3038 RMK A01 T00441036  RH  056%=      5-min Rain = 0
KEN1 091731Z 34001KT 05/M04 A3038 RMK A01 T00451036  RH  055%=      5-min Rain = 0
KEN1 091732Z 16000KT 05/M04 A3038 RMK A01 T00471036  RH  055%=      5-min Rain = 0
KEN1 091733Z 12001KT 05/M04 A3038 RMK A01 T00491035  RH  055%=      5-min Rain = 0
KEN1 091734Z 27001KT 05/M03 A3038 RMK A01 T00501034  RH  054%=      5-min Rain = 0
KEN1 091735Z 32003KT 05/M03 A3038 RMK A01 T00521032  RH  055%=      5-min Rain = 0
KEN1 091736Z 34003KT 05/M03 A3038 RMK A01 T00531034  RH  054%=      5-min Rain = 0
KEN1 091737Z 34002KT 05/M04 A3038 RMK A01 T00511035  RH  054%=      5-min Rain = 0
KEN1 091738Z 31002KT 05/M04 A3038 RMK A01 T00501036  RH  053%=      5-min Rain = 0
KEN1 091739Z 31004KT 05/M04 A3038 RMK A01 T00491037  RH  054%=      5-min Rain = 0
KEN1 091740Z 30002KT 05/M04 A3038 RMK A01 T00481038  RH  054%=      5-min Rain = 0
KEN1 091741Z 30001KT 05/M04 A3038 RMK A01 T00471038  RH  054%=      5-min Rain = 0
KEN1 091742Z 27001KT 05/M04 A3038 RMK A01 T00471038  RH  054%=      5-min Rain = 0
KEN1 091743Z 31002KT 05/M04 A3038 RMK A01 T00481037  RH  054%=      5-min Rain = 0
KEN1 091744Z 01003KT 05/M04 A3038 RMK A01 T00491037  RH  054%=      5-min Rain = 0
KEN1 091745Z 01003KT 05/M04 A3038 RMK A01 T00491037  RH  053%=      5-min Rain = 0
KEN1 091746Z 01002KT 05/M04 A3038 RMK A01 T00491037  RH  054%=      5-min Rain = 0
KEN1 091747Z 03000KT 05/M04 A3038 RMK A01 T00481038  RH  053%=      5-min Rain = 0
KEN1 091748Z 02001KT 05/M04 A3038 RMK A01 T00491038  RH  053%=      5-min Rain = 0
KEN1 091749Z 02002KT 05/M04 A3038 RMK A01 T00501038  RH  053%=      5-min Rain = 0
KEN1 091750Z 01002KT 05/M04 A3038 RMK A01 T00501038  RH  053%=      5-min Rain = 0
KEN1 091751Z 03002KT 05/M04 A3038 RMK A01 T00501038  RH  053%=      5-min Rain = 0
KEN1 091752Z 01002KT 05/M04 A3038 RMK A01 T00501038  RH  053%=      5-min Rain = 0
KEN1 091753Z 02002KT 05/M04 A3038 RMK A01 T00501037  RH  053%=      5-min Rain = 0
KEN1 091754Z 00001KT 05/M04 A3038 RMK A01 T00511037  RH  053%=      5-min Rain = 0
KEN1 091755Z 36001KT 05/M04 A3038 RMK A01 T00511036  RH  053%=      5-min Rain = 0
KEN1 091756Z 35001KT 05/M04 A3038 RMK A01 T00521037  RH  053%=      5-min Rain = 0
KEN1 091757Z 07001KT 05/M04 A3038 RMK A01 T00531035  RH  053%=      5-min Rain = 0
KEN1 091758Z 07000KT 06/M04 A3037 RMK A01 T00561035  RH  052%=      5-min Rain = 0
KEN1 091759Z 29001KT 06/M04 A3037 RMK A01 T00571035  RH  051%=      5-min Rain = 0
KEN1 091800Z 33005KT 06/M03 A3037 RMK A01 T00591034  RH  051%=      5-min Rain = 0
KEN1 091801Z 32003KT 06/M04 A3037 RMK A01 T00581035  RH  051%=      5-min Rain = 0
KEN1 091802Z 32005KT 06/M04 A3037 RMK A01 T00571036  RH  051%=      5-min Rain = 0
KEN1 091803Z 32004KT 06/M04 A3037 RMK A01 T00561037  RH  051%=      5-min Rain = 0
KEN1 091804Z 35003KT 06/M04 A3037 RMK A01 T00551037  RH  051%=      5-min Rain = 0
KEN1 091805Z 00004KT 06/M04 A3037 RMK A01 T00551037  RH  051%=      5-min Rain = 0
KEN1 091806Z 33001KT 05/M04 A3037 RMK A01 T00541040  RH  051%=      5-min Rain = 0
KEN1 091807Z 32000KT 05/M04 A3037 RMK A01 T00541039  RH  051%=      5-min Rain = 0
KEN1 091808Z 27002KT 06/M04 A3037 RMK A01 T00551038  RH  051%=      5-min Rain = 0
KEN1 091809Z 29001KT 06/M04 A3037 RMK A01 T00561038  RH  051%=      5-min Rain = 0
KEN1 091810Z 31002KT 06/M04 A3037 RMK A01 T00571037  RH  051%=      5-min Rain = 0
KEN1 091811Z 03003KT 06/M04 A3037 RMK A01 T00581036  RH  051%=      5-min Rain = 0
KEN1 091812Z 03003KT 06/M04 A3037 RMK A01 T00601038  RH  050%=      5-min Rain = 0
KEN1 091813Z 35001KT 06/M04 A3037 RMK A01 T00601039  RH  049%=      5-min Rain = 0
KEN1 091814Z 30001KT 06/M04 A3036 RMK A01 T00601040  RH  049%=      5-min Rain = 0
KEN1 091815Z 33002KT 06/M04 A3036 RMK A01 T00611039  RH  049%=      5-min Rain = 0
KEN1 091816Z 04002KT 06/M04 A3036 RMK A01 T00611040  RH  048%=      5-min Rain = 0
KEN1 091817Z 35004KT 06/M04 A3036 RMK A01 T00621037  RH  049%=      5-min Rain = 0
KEN1 091818Z 00004KT 07/M04 A3036 RMK A01 T00651038  RH  048%=      5-min Rain = 0
KEN1 091819Z 01005KT 07/M04 A3036 RMK A01 T00651040  RH  047%=      5-min Rain = 0
KEN1 091820Z 34003KT 06/M04 A3036 RMK A01 T00621043  RH  047%=      5-min Rain = 0
KEN1 091821Z 35003KT 06/M04 A3036 RMK A01 T00621042  RH  047%=      5-min Rain = 0
KEN1 091822Z 01005KT 06/M04 A3036 RMK A01 T00621040  RH  048%=      5-min Rain = 0
KEN1 091823Z 07004KT 06/M04 A3036 RMK A01 T00631041  RH  048%=      5-min Rain = 0
KEN1 091824Z 08004KT 06/M04 A3036 RMK A01 T00631043  RH  047%=      5-min Rain = 0
KEN1 091825Z 07003KT 06/M04 A3036 RMK A01 T00641041  RH  047%=      5-min Rain = 0
KEN1 091826Z 10003KT 07/M04 A3035 RMK A01 T00651041  RH  046%=      5-min Rain = 0
KEN1 091827Z 06003KT 07/M04 A3035 RMK A01 T00661041  RH  046%=      5-min Rain = 0
KEN1 091828Z 02005KT 07/M04 A3035 RMK A01 T00681040  RH  046%=      5-min Rain = 0
KEN1 091829Z 00003KT 07/M04 A3035 RMK A01 T00681041  RH  046%=      5-min Rain = 0
KEN1 091830Z 02004KT 07/M04 A3035 RMK A01 T00671043  RH  046%=      5-min Rain = 0
KEN1 091831Z 03004KT 07/M04 A3035 RMK A01 T00661044  RH  045%=      5-min Rain = 0
KEN1 091832Z 04002KT 07/M04 A3035 RMK A01 T00661043  RH  046%=      5-min Rain = 0
KEN1 091833Z 01002G7KT 07/M04 A3035 RMK A01 T00661042  RH  046%=      5-min Rain = 0
KEN1 091834Z 01006KT 07/M04 A3035 RMK A01 T00681041  RH  046%=      5-min Rain = 0
KEN1 091835Z 35003KT 07/M04 A3035 RMK A01 T00651044  RH  045%=      5-min Rain = 0
KEN1 091836Z 36003KT 06/M04 A3035 RMK A01 T00641043  RH  046%=      5-min Rain = 0
KEN1 091837Z 35004KT 07/M04 A3035 RMK A01 T00651042  RH  046%=      5-min Rain = 0
KEN1 091838Z 36004KT 07/M04 A3035 RMK A01 T00661042  RH  046%=      5-min Rain = 0
KEN1 091839Z 03004KT 07/M04 A3035 RMK A01 T00671042  RH  046%=      5-min Rain = 0
KEN1 091840Z 02002KT 07/M04 A3035 RMK A01 T00661044  RH  045%=      5-min Rain = 0
KEN1 091841Z 05002KT 07/M04 A3035 RMK A01 T00671042  RH  046%=      5-min Rain = 0
KEN1 091842Z 04002KT 07/M04 A3035 RMK A01 T00691042  RH  045%=      5-min Rain = 0
KEN1 091843Z 07003KT 07/M04 A3035 RMK A01 T00691043  RH  045%=      5-min Rain = 0
KEN1 091844Z 10003KT 07/M04 A3035 RMK A01 T00691044  RH  045%=      5-min Rain = 0
KEN1 091845Z 06000KT 07/M04 A3035 RMK A01 T00681043  RH  045%=      5-min Rain = 0
KEN1 091846Z 19000KT 07/M04 A3034 RMK A01 T00691042  RH  045%=      5-min Rain = 0
KEN1 091847Z 13000KT 07/M04 A3034 RMK A01 T00721041  RH  045%=      5-min Rain = 0
KEN1 091848Z 02001KT 08/M04 A3034 RMK A01 T00751039  RH  044%=      5-min Rain = 0
KEN1 091849Z 01003KT 08/M04 A3034 RMK A01 T00771040  RH  043%=      5-min Rain = 0
KEN1 091850Z 02007KT 08/M04 A3034 RMK A01 T00771042  RH  043%=      5-min Rain = 0
KEN1 091851Z 00006KT 08/M04 A3034 RMK A01 T00761044  RH  042%=      5-min Rain = 0
KEN1 091852Z 03005KT 07/M05 A3034 RMK A01 T00721045  RH  043%=      5-min Rain = 0
KEN1 091853Z 36004KT 07/M04 A3034 RMK A01 T00721044  RH  044%=      5-min Rain = 0
KEN1 091854Z 35001KT 07/M04 A3034 RMK A01 T00721043  RH  044%=      5-min Rain = 0
KEN1 091855Z 01003KT 07/M04 A3034 RMK A01 T00731042  RH  044%=      5-min Rain = 0
KEN1 091856Z 00006KT 08/M04 A3034 RMK A01 T00751040  RH  044%=      5-min Rain = 0
KEN1 091857Z 35003KT 07/M04 A3034 RMK A01 T00741044  RH  043%=      5-min Rain = 0
KEN1 091858Z 32001KT 07/M05 A3034 RMK A01 T00711046  RH  043%=      5-min Rain = 0
KEN1 091859Z 36002KT 07/M04 A3034 RMK A01 T00711044  RH  044%=      5-min Rain = 0
KEN1 091900Z 03005KT 07/M04 A3034 RMK A01 T00731043  RH  044%=      5-min Rain = 0
KEN1 091901Z 04004KT 08/M04 A3034 RMK A01 T00751043  RH  043%=      5-min Rain = 0
KEN1 091902Z 04002KT 08/M05 A3034 RMK A01 T00751045  RH  042%=      5-min Rain = 0
KEN1 091903Z 07000KT 08/M04 A3034 RMK A01 T00751043  RH  043%=      5-min Rain = 0
KEN1 091904Z 02003KT 08/M04 A3034 RMK A01 T00761043  RH  042%=      5-min Rain = 0
KEN1 091905Z 01004KT 08/M04 A3034 RMK A01 T00771044  RH  042%=      5-min Rain = 0
KEN1 091906Z 02006KT 08/M04 A3034 RMK A01 T00761044  RH  042%=      5-min Rain = 0
KEN1 091907Z 03002KT 07/M05 A3034 RMK A01 T00741046  RH  042%=      5-min Rain = 0
KEN1 091908Z 36004KT 07/M04 A3034 RMK A01 T00731044  RH  043%=      5-min Rain = 0
KEN1 091909Z 35006KT 08/M04 A3034 RMK A01 T00751041  RH  043%=      5-min Rain = 0
KEN1 091910Z 35004KT 07/M04 A3034 RMK A01 T00741044  RH  043%=      5-min Rain = 0
KEN1 091911Z 35006KT 07/M04 A3034 RMK A01 T00741042  RH  044%=      5-min Rain = 0
KEN1 091912Z 34004KT 08/M04 A3034 RMK A01 T00761040  RH  043%=      5-min Rain = 0
KEN1 091913Z 01004KT 08/M04 A3034 RMK A01 T00771041  RH  043%=      5-min Rain = 0
KEN1 091914Z 02005KT 08/M04 A3034 RMK A01 T00791040  RH  043%=      5-min Rain = 0
KEN1 091915Z 02005KT 08/M04 A3034 RMK A01 T00791042  RH  042%=      5-min Rain = 0
KEN1 091916Z 04004KT 08/M04 A3034 RMK A01 T00771044  RH  042%=      5-min Rain = 0
KEN1 091917Z 03004KT 08/M05 A3034 RMK A01 T00751046  RH  042%=      5-min Rain = 0
KEN1 091918Z 05005KT 08/M05 A3034 RMK A01 T00771048  RH  041%=      5-min Rain = 0
KEN1 091919Z 06005KT 08/M05 A3034 RMK A01 T00771049  RH  041%=      5-min Rain = 0
KEN1 091920Z 06005KT 08/M05 A3034 RMK A01 T00771049  RH  041%=      5-min Rain = 0
KEN1 091921Z 05004KT 08/M05 A3034 RMK A01 T00761048  RH  041%=      5-min Rain = 0
KEN1 091922Z 03004KT 08/M05 A3034 RMK A01 T00761046  RH  041%=      5-min Rain = 0
KEN1 091923Z 01004KT 08/M05 A3034 RMK A01 T00761046  RH  042%=      5-min Rain = 0
KEN1 091924Z 01004KT 08/M05 A3034 RMK A01 T00751048  RH  041%=      5-min Rain = 0
KEN1 091925Z 35007KT 07/M05 A3034 RMK A01 T00741047  RH  042%=      5-min Rain = 0
KEN1 091926Z 35005KT 07/M05 A3034 RMK A01 T00731049  RH  042%=      5-min Rain = 0
KEN1 091927Z 35004KT 07/M05 A3034 RMK A01 T00721050  RH  042%=      5-min Rain = 0
KEN1 091928Z 32003KT 07/M05 A3034 RMK A01 T00711050  RH  042%=      5-min Rain = 0
KEN1 091929Z 00003KT 07/M05 A3034 RMK A01 T00711050  RH  042%=      5-min Rain = 0
KEN1 091930Z 02005KT 07/M05 A3034 RMK A01 T00721048  RH  042%=      5-min Rain = 0
KEN1 091931Z 02004KT 07/M05 A3034 RMK A01 T00741049  RH  041%=      5-min Rain = 0
KEN1 091932Z 04003KT 07/M05 A3034 RMK A01 T00731052  RH  041%=      5-min Rain = 0
KEN1 091933Z 36004KT 07/M05 A3034 RMK A01 T00721053  RH  041%=      5-min Rain = 0
KEN1 091934Z 34003KT 07/M05 A3034 RMK A01 T00721053  RH  041%=      5-min Rain = 0
KEN1 091935Z 34000KT 07/M05 A3034 RMK A01 T00721054  RH  040%=      5-min Rain = 0
KEN1 091936Z 00000KT 07/M05 A3034 RMK A01 T00721054  RH  040%=      5-min Rain = 0
KEN1 091937Z 01003KT 07/M06 A3034 RMK A01 T00721055  RH  040%=      5-min Rain = 0
KEN1 091938Z 00005KT 07/M05 A3034 RMK A01 T00731053  RH  040%=      5-min Rain = 0
KEN1 091939Z 01005KT 07/M05 A3034 RMK A01 T00741052  RH  040%=      5-min Rain = 0
KEN1 091940Z 01006KT 08/M05 A3034 RMK A01 T00751051  RH  040%=      5-min Rain = 0
KEN1 091941Z 00004KT 08/M05 A3034 RMK A01 T00751052  RH  040%=      5-min Rain = 0
KEN1 091942Z 34003KT 08/M05 A3034 RMK A01 T00751053  RH  040%=      5-min Rain = 0
KEN1 091943Z 01005KT 07/M06 A3034 RMK A01 T00741055  RH  039%=      5-min Rain = 0
KEN1 091944Z 01007KT 07/M06 A3034 RMK A01 T00741055  RH  039%=      5-min Rain = 0
KEN1 091945Z 01005KT 07/M05 A3034 RMK A01 T00741054  RH  040%=      5-min Rain = 0
KEN1 091946Z 36003KT 07/M06 A3033 RMK A01 T00741055  RH  040%=      5-min Rain = 0
KEN1 091947Z 35003KT 07/M06 A3033 RMK A01 T00741055  RH  039%=      5-min Rain = 0
KEN1 091948Z 33002KT 08/M06 A3033 RMK A01 T00751061  RH  037%=      5-min Rain = 0
KEN1 091949Z 35001KT 08/M06 A3033 RMK A01 T00751064  RH  037%=      5-min Rain = 0
KEN1 091950Z 02002KT 08/M06 A3033 RMK A01 T00751061  RH  038%=      5-min Rain = 0
KEN1 091951Z 02002KT 08/M06 A3033 RMK A01 T00761063  RH  037%=      5-min Rain = 0
KEN1 091952Z 01002KT 08/M06 A3033 RMK A01 T00761064  RH  036%=      5-min Rain = 0
KEN1 091953Z 04004KT 08/M06 A3033 RMK A01 T00761063  RH  037%=      5-min Rain = 0
KEN1 091954Z 06006KT 08/M06 A3033 RMK A01 T00791055  RH  038%=      5-min Rain = 0
KEN1 091955Z 05005KT 08/M05 A3033 RMK A01 T00811053  RH  038%=      5-min Rain = 0
KEN1 091956Z 08005KT 08/M05 A3033 RMK A01 T00841051  RH  038%=      5-min Rain = 0
KEN1 091957Z 09003KT 08/M06 A3033 RMK A01 T00841055  RH  037%=      5-min Rain = 0
KEN1 091958Z 08003KT 08/M06 A3033 RMK A01 T00811058  RH  037%=      5-min Rain = 0
KEN1 091959Z 07003KT 08/M06 A3032 RMK A01 T00801056  RH  037%=      5-min Rain = 0
KEN1 092000Z 05002KT 08/M06 A3032 RMK A01 T00811055  RH  038%=      5-min Rain = 0
KEN1 092001Z 13001KT 08/M06 A3032 RMK A01 T00811056  RH  037%=      5-min Rain = 0
KEN1 092002Z 12003KT 08/M06 A3032 RMK A01 T00831055  RH  037%=      5-min Rain = 0
KEN1 092003Z 12003KT 08/M06 A3032 RMK A01 T00841055  RH  037%=      5-min Rain = 0
KEN1 092004Z 13002KT 09/M06 A3032 RMK A01 T00851056  RH  037%=      5-min Rain = 0
KEN1 092005Z 13002KT 09/M06 A3032 RMK A01 T00851057  RH  036%=      5-min Rain = 0
KEN1 092006Z 14002KT 09/M06 A3032 RMK A01 T00861059  RH  035%=      5-min Rain = 0
KEN1 092007Z 17001KT 09/M06 A3032 RMK A01 T00851060  RH  035%=      5-min Rain = 0
KEN1 092008Z 01001KT 09/M06 A3032 RMK A01 T00851060  RH  035%=      5-min Rain = 0
KEN1 092009Z 03003KT 09/M06 A3032 RMK A01 T00861063  RH  034%=      5-min Rain = 0
KEN1 092010Z 05001KT 08/M07 A3032 RMK A01 T00841066  RH  034%=      5-min Rain = 0
KEN1 092011Z 05002KT 08/M06 A3032 RMK A01 T00841064  RH  034%=      5-min Rain = 0
KEN1 092012Z 06002KT 09/M06 A3032 RMK A01 T00851063  RH  034%=      5-min Rain = 0
KEN1 092013Z 02003KT 08/M06 A3032 RMK A01 T00841064  RH  034%=      5-min Rain = 0
KEN1 092014Z 35002KT 08/M06 A3032 RMK A01 T00841064  RH  035%=      5-min Rain = 0
KEN1 092015Z 02002KT 08/M07 A3031 RMK A01 T00831065  RH  035%=      5-min Rain = 0
KEN1 092016Z 06002KT 08/M06 A3031 RMK A01 T00831064  RH  035%=      5-min Rain = 0
KEN1 092017Z 06001KT 09/M07 A3031 RMK A01 T00851067  RH  034%=      5-min Rain = 0
KEN1 092018Z 08001KT 09/M07 A3031 RMK A01 T00861068  RH  033%=      5-min Rain = 0
KEN1 092019Z 06000KT 09/M07 A3031 RMK A01 T00871072  RH  032%=      5-min Rain = 0
KEN1 092020Z 18000KT 09/M07 A3031 RMK A01 T00901071  RH  031%=      5-min Rain = 0
KEN1 092021Z 04000KT 09/M07 A3031 RMK A01 T00931068  RH  031%=      5-min Rain = 0
KEN1 092022Z 04002KT 10/M07 A3031 RMK A01 T00971069  RH  030%=      5-min Rain = 0
KEN1 092023Z 08002KT 10/M07 A3031 RMK A01 T00971072  RH  030%=      5-min Rain = 0
KEN1 092024Z 05000KT 10/M07 A3031 RMK A01 T00971070  RH  030%=      5-min Rain = 0
KEN1 092025Z 11001KT 10/M07 A3031 RMK A01 T00971071  RH  030%=      5-min Rain = 0
KEN1 092026Z 14002KT 10/M07 A3031 RMK A01 T00981071  RH  030%=      5-min Rain = 0
KEN1 092027Z 14003KT 10/M07 A3031 RMK A01 T00971072  RH  029%=      5-min Rain = 0
KEN1 092028Z 14003KT 10/M07 A3031 RMK A01 T00961072  RH  030%=      5-min Rain = 0
KEN1 092029Z 13003KT 10/M07 A3031 RMK A01 T00951072  RH  030%=      5-min Rain = 0
KEN1 092030Z 12002KT 10/M07 A3031 RMK A01 T00951072  RH  030%=      5-min Rain = 0
KEN1 092031Z 10001KT 10/M07 A3031 RMK A01 T00951072  RH  030%=      5-min Rain = 0
KEN1 092032Z 10002KT 09/M07 A3031 RMK A01 T00941072  RH  030%=      5-min Rain = 0
KEN1 092033Z 00001KT 10/M07 A3031 RMK A01 T00951070  RH  031%=      5-min Rain = 0
KEN1 092034Z 01001KT 10/M07 A3031 RMK A01 T00961069  RH  031%=      5-min Rain = 0
KEN1 092035Z 35004KT 10/M07 A3031 RMK A01 T00961068  RH  031%=      5-min Rain = 0
KEN1 092036Z 00003KT 10/M07 A3031 RMK A01 T00951071  RH  030%=      5-min Rain = 0
KEN1 092037Z 35004KT 09/M07 A3031 RMK A01 T00921073  RH  030%=      5-min Rain = 0
KEN1 092038Z 33003KT 09/M07 A3031 RMK A01 T00911072  RH  031%=      5-min Rain = 0
KEN1 092039Z 30003KT 09/M07 A3031 RMK A01 T00881074  RH  031%=      5-min Rain = 0
KEN1 092040Z 26002KT 09/M07 A3031 RMK A01 T00881074  RH  031%=      5-min Rain = 0
KEN1 092041Z 23001KT 09/M08 A3031 RMK A01 T00881075  RH  031%=      5-min Rain = 0
KEN1 092042Z 22000KT 09/M08 A3031 RMK A01 T00891075  RH  031%=      5-min Rain = 0
KEN1 092043Z 32002KT 09/M07 A3031 RMK A01 T00921072  RH  031%=      5-min Rain = 0
KEN1 092044Z 32002KT 09/M07 A3031 RMK A01 T00941071  RH  030%=      5-min Rain = 0
KEN1 092045Z 28002KT 09/M07 A3031 RMK A01 T00921074  RH  030%=      5-min Rain = 0
KEN1 092046Z 27002KT 09/M07 A3031 RMK A01 T00921072  RH  031%=      5-min Rain = 0
KEN1 092047Z 29001KT 09/M07 A3031 RMK A01 T00941070  RH  031%=      5-min Rain = 0
KEN1 092048Z 29002KT 10/M07 A3031 RMK A01 T00951069  RH  031%=      5-min Rain = 0
KEN1 092049Z 30002KT 10/M07 A3031 RMK A01 T00961069  RH  031%=      5-min Rain = 0
KEN1 092050Z 29002KT 10/M07 A3031 RMK A01 T00951070  RH  030%=      5-min Rain = 0
KEN1 092051Z 30002KT 09/M07 A3031 RMK A01 T00941071  RH  030%=      5-min Rain = 0
KEN1 092052Z 33002KT 09/M07 A3031 RMK A01 T00921072  RH  031%=      5-min Rain = 0
KEN1 092053Z 02003KT 09/M07 A3031 RMK A01 T00921071  RH  031%=      5-min Rain = 0
KEN1 092054Z 04003KT 09/M07 A3031 RMK A01 T00931073  RH  030%=      5-min Rain = 0
KEN1 092055Z 00004KT 10/M07 A3031 RMK A01 T00951072  RH  030%=      5-min Rain = 0
KEN1 092056Z 35004KT 10/M07 A3031 RMK A01 T00951071  RH  030%=      5-min Rain = 0
KEN1 092057Z 35003KT 09/M07 A3031 RMK A01 T00931074  RH  030%=      5-min Rain = 0
KEN1 092058Z 35002KT 09/M08 A3031 RMK A01 T00911075  RH  030%=      5-min Rain = 0
KEN1 092059Z 04003KT 09/M07 A3031 RMK A01 T00901073  RH  031%=      5-min Rain = 0
KEN1 092100Z 04006KT 09/M07 A3031 RMK A01 T00931071  RH  031%=      5-min Rain = 0
KEN1 092101Z 03007KT 10/M07 A3031 RMK A01 T00951069  RH  031%=      5-min Rain = 0
KEN1 092102Z 01006KT 09/M07 A3031 RMK A01 T00941071  RH  030%=      5-min Rain = 0
KEN1 092103Z 01004KT 09/M07 A3031 RMK A01 T00931072  RH  031%=      5-min Rain = 0
KEN1 092104Z 02006KT 09/M07 A3031 RMK A01 T00921071  RH  031%=      5-min Rain = 0
KEN1 092105Z 04005KT 09/M07 A3031 RMK A01 T00931071  RH  031%=      5-min Rain = 0
KEN1 092106Z 03005KT 10/M07 A3031 RMK A01 T00951070  RH  030%=      5-min Rain = 0
KEN1 092107Z 01002KT 10/M07 A3031 RMK A01 T00971069  RH  030%=      5-min Rain = 0
KEN1 092108Z 33001KT 10/M07 A3031 RMK A01 T00961071  RH  030%=      5-min Rain = 0
KEN1 092109Z 29001KT 10/M07 A3031 RMK A01 T00951072  RH  030%=      5-min Rain = 0
KEN1 092110Z 30001KT 10/M07 A3031 RMK A01 T00951073  RH  030%=      5-min Rain = 0
KEN1 092111Z 04001KT 10/M07 A3031 RMK A01 T00971074  RH  029%=      5-min Rain = 0
KEN1 092112Z 05005KT 10/M08 A3031 RMK A01 T00981075  RH  029%=      5-min Rain = 0
KEN1 092113Z 05004KT 10/M08 A3031 RMK A01 T00981076  RH  029%=      5-min Rain = 0
KEN1 092114Z 07003KT 10/M08 A3031 RMK A01 T00971076  RH  029%=      5-min Rain = 0
KEN1 092115Z 05004KT 10/M08 A3031 RMK A01 T00971079  RH  028%=      5-min Rain = 0
KEN1 092116Z 05007KT 10/M08 A3031 RMK A01 T00971079  RH  028%=      5-min Rain = 0
KEN1 092117Z 06006KT 10/M08 A3031 RMK A01 T00981079  RH  028%=      5-min Rain = 0
KEN1 092118Z 07006KT 10/M08 A3031 RMK A01 T00961079  RH  028%=      5-min Rain = 0
KEN1 092119Z 07004KT 10/M08 A3031 RMK A01 T00961078  RH  029%=      5-min Rain = 0
KEN1 092120Z 05003KT 10/M08 A3031 RMK A01 T00951076  RH  029%=      5-min Rain = 0
KEN1 092121Z 05003KT 10/M08 A3031 RMK A01 T00951077  RH  029%=      5-min Rain = 0
KEN1 092122Z 03006KT 10/M08 A3031 RMK A01 T00951078  RH  029%=      5-min Rain = 0
KEN1 092123Z 03007KT 10/M08 A3031 RMK A01 T00961080  RH  028%=      5-min Rain = 0
KEN1 092124Z 03006KT 10/M08 A3031 RMK A01 T00971081  RH  028%=      5-min Rain = 0
KEN1 092125Z 04005KT 10/M08 A3031 RMK A01 T00971082  RH  028%=      5-min Rain = 0
KEN1 092126Z 04005KT 10/M08 A3031 RMK A01 T00961083  RH  028%=      5-min Rain = 0
KEN1 092127Z 04004KT 10/M08 A3031 RMK A01 T00971083  RH  027%=      5-min Rain = 0
KEN1 092128Z 03004KT 10/M08 A3031 RMK A01 T00961083  RH  027%=      5-min Rain = 0
KEN1 092129Z 02003KT 10/M08 A3031 RMK A01 T00951082  RH  028%=      5-min Rain = 0
KEN1 092130Z 05003KT 10/M08 A3031 RMK A01 T00951081  RH  028%=      5-min Rain = 0
KEN1 092131Z 02005KT 10/M09 A3032 RMK A01 T00961086  RH  027%=      5-min Rain = 0
KEN1 092132Z 02006KT 10/M10 A3032 RMK A01 T00961095  RH  025%=      5-min Rain = 0
KEN1 092133Z 01007KT 10/M10 A3032 RMK A01 T00961096  RH  025%=      5-min Rain = 0
KEN1 092134Z 02006KT 09/M10 A3032 RMK A01 T00941102  RH  024%=      5-min Rain = 0
KEN1 092135Z 02005KT 09/M10 A3032 RMK A01 T00931101  RH  024%=      5-min Rain = 0
KEN1 092136Z 01005KT 09/M10 A3032 RMK A01 T00931096  RH  025%=      5-min Rain = 0
KEN1 092137Z 35004KT 09/M09 A3031 RMK A01 T00931092  RH  026%=      5-min Rain = 0
KEN1 092138Z 35004KT 09/M09 A3031 RMK A01 T00941091  RH  026%=      5-min Rain = 0
KEN1 092139Z 02003KT 09/M09 A3031 RMK A01 T00931094  RH  026%=      5-min Rain = 0
KEN1 092140Z 07004KT 09/M09 A3031 RMK A01 T00911094  RH  026%=      5-min Rain = 0
KEN1 092141Z 07005KT 09/M09 A3031 RMK A01 T00911092  RH  027%=      5-min Rain = 0
KEN1 092142Z 06004KT 09/M09 A3031 RMK A01 T00901088  RH  028%=      5-min Rain = 0
KEN1 092143Z 07003KT 09/M09 A3031 RMK A01 T00901086  RH  028%=      5-min Rain = 0
KEN1 092144Z 07003KT 09/M09 A3031 RMK A01 T00911086  RH  028%=      5-min Rain = 0
KEN1 092145Z 07002KT 09/M09 A3031 RMK A01 T00911087  RH  028%=      5-min Rain = 0
KEN1 092146Z 03001KT 09/M09 A3031 RMK A01 T00911086  RH  028%=      5-min Rain = 0
KEN1 092147Z 01001KT 09/M09 A3031 RMK A01 T00921087  RH  027%=      5-min Rain = 0
KEN1 092148Z 34001KT 09/M09 A3031 RMK A01 T00921087  RH  027%=      5-min Rain = 0
KEN1 092149Z 05003KT 09/M09 A3031 RMK A01 T00921085  RH  028%=      5-min Rain = 0
KEN1 092150Z 03004KT 09/M09 A3031 RMK A01 T00921085  RH  028%=      5-min Rain = 0
KEN1 092151Z 02002KT 09/M09 A3031 RMK A01 T00921086  RH  028%=      5-min Rain = 0
KEN1 092152Z 01002KT 09/M09 A3031 RMK A01 T00911088  RH  027%=      5-min Rain = 0
KEN1 092153Z 02002KT 09/M09 A3031 RMK A01 T00901088  RH  027%=      5-min Rain = 0
KEN1 092154Z 04004KT 09/M09 A3031 RMK A01 T00921087  RH  027%=      5-min Rain = 0
KEN1 092155Z 04005KT 09/M09 A3031 RMK A01 T00941093  RH  026%=      5-min Rain = 0
KEN1 092156Z 05005KT 10/M10 A3031 RMK A01 T00961096  RH  025%=      5-min Rain = 0
KEN1 092157Z 06005KT 10/M10 A3031 RMK A01 T00961096  RH  025%=      5-min Rain = 0
KEN1 092158Z 06004KT 10/M10 A3031 RMK A01 T00951098  RH  025%=      5-min Rain = 0
KEN1 092159Z 04005KT 10/M10 A3031 RMK A01 T00951097  RH  025%=      5-min Rain = 0
KEN1 092200Z 05004KT 10/M10 A3031 RMK A01 T00961098  RH  024%=      5-min Rain = 0
KEN1 092201Z 07005KT 10/M10 A3031 RMK A01 T00961097  RH  025%=      5-min Rain = 0
KEN1 092202Z 07004KT 10/M09 A3031 RMK A01 T00961094  RH  025%=      5-min Rain = 0
KEN1 092203Z 08004KT 10/M10 A3031 RMK A01 T00971095  RH  025%=      5-min Rain = 0
KEN1 092204Z 09004KT 10/M10 A3031 RMK A01 T00961095  RH  025%=      5-min Rain = 0
KEN1 092205Z 06004KT 10/M09 A3031 RMK A01 T00961094  RH  025%=      5-min Rain = 0
KEN1 092206Z 07003KT 10/M09 A3031 RMK A01 T00961094  RH  025%=      5-min Rain = 0
KEN1 092207Z 05003KT 10/M09 A3031 RMK A01 T00951094  RH  025%=      5-min Rain = 0
KEN1 092208Z 04004KT 10/M10 A3031 RMK A01 T00961096  RH  025%=      5-min Rain = 0
KEN1 092209Z 03003KT 10/M10 A3031 RMK A01 T00951100  RH  024%=      5-min Rain = 0
KEN1 092210Z 02002KT 09/M10 A3031 RMK A01 T00941101  RH  024%=      5-min Rain = 0
KEN1 092211Z 01001KT 09/M10 A3031 RMK A01 T00931099  RH  025%=      5-min Rain = 0
KEN1 092212Z 33000KT 09/M10 A3031 RMK A01 T00921096  RH  025%=      5-min Rain = 0
KEN1 092213Z 31001KT 09/M10 A3031 RMK A01 T00931095  RH  026%=      5-min Rain = 0
KEN1 092214Z 00001KT 09/M09 A3031 RMK A01 T00941094  RH  026%=      5-min Rain = 0
KEN1 092215Z 02002KT 09/M10 A3031 RMK A01 T00941095  RH  025%=      5-min Rain = 0
KEN1 092216Z 36002KT 10/M09 A303 RMK A01 T00951093  RH  025%=      5-min Rain = 0
KEN1 092217Z 01002KT 10/M09 A303 RMK A01 T00951092  RH  026%=      5-min Rain = 0
KEN1 092218Z 02002KT 10/M09 A303 RMK A01 T00951093  RH  026%=      5-min Rain = 0
KEN1 092219Z 05003KT 10/M09 A303 RMK A01 T00951093  RH  026%=      5-min Rain = 0
KEN1 092220Z 07002KT 10/M09 A303 RMK A01 T00951094  RH  025%=      5-min Rain = 0
KEN1 092221Z 10003KT 10/M09 A303 RMK A01 T00951093  RH  025%=      5-min Rain = 0
KEN1 092222Z 12003KT 10/M09 A303 RMK A01 T00951093  RH  026%=      5-min Rain = 0
KEN1 092223Z 10003KT 10/M09 A303 RMK A01 T00951094  RH  025%=      5-min Rain = 0
KEN1 092224Z 09006KT 10/M09 A303 RMK A01 T00961091  RH  026%=      5-min Rain = 0
KEN1 092225Z 10006KT 10/M09 A303 RMK A01 T00961090  RH  026%=      5-min Rain = 0
KEN1 092226Z 10006KT 10/M09 A303 RMK A01 T00951091  RH  026%=      5-min Rain = 0
KEN1 092227Z 10004KT 09/M09 A303 RMK A01 T00941091  RH  026%=      5-min Rain = 0
KEN1 092228Z 10004KT 09/M09 A303 RMK A01 T00941090  RH  026%=      5-min Rain = 0
KEN1 092229Z 11004KT 09/M09 A303 RMK A01 T00941089  RH  026%=      5-min Rain = 0
KEN1 092230Z 10003KT 09/M09 A303 RMK A01 T00941089  RH  027%=      5-min Rain = 0
KEN1 092231Z 10004KT 09/M09 A3031 RMK A01 T00941089  RH  026%=      5-min Rain = 0
KEN1 092232Z 09004KT 10/M09 A3031 RMK A01 T00951091  RH  026%=      5-min Rain = 0
KEN1 092233Z 07003KT 10/M09 A3031 RMK A01 T00951090  RH  026%=      5-min Rain = 0
KEN1 092234Z 05004KT 10/M09 A3031 RMK A01 T00951090  RH  026%=      5-min Rain = 0
KEN1 092235Z 04004KT 09/M09 A3031 RMK A01 T00941090  RH  026%=      5-min Rain = 0
KEN1 092236Z 04003KT 09/M09 A3031 RMK A01 T00941089  RH  026%=      5-min Rain = 0
KEN1 092237Z 05003KT 09/M09 A3031 RMK A01 T00941090  RH  026%=      5-min Rain = 0
KEN1 092238Z 04003KT 09/M09 A3031 RMK A01 T00941090  RH  026%=      5-min Rain = 0
KEN1 092239Z 05003KT 09/M09 A3031 RMK A01 T00931091  RH  026%=      5-min Rain = 0
KEN1 092240Z 05002KT 09/M09 A3031 RMK A01 T00931090  RH  027%=      5-min Rain = 0
KEN1 092241Z 05002KT 09/M09 A3031 RMK A01 T00931090  RH  027%=      5-min Rain = 0
KEN1 092242Z 05001KT 09/M09 A3031 RMK A01 T00931090  RH  026%=      5-min Rain = 0
KEN1 092243Z 03003KT 09/M09 A3031 RMK A01 T00931090  RH  027%=      5-min Rain = 0
KEN1 092244Z 07003KT 09/M09 A3031 RMK A01 T00941089  RH  027%=      5-min Rain = 0
KEN1 092245Z 08004KT 09/M09 A3031 RMK A01 T00931091  RH  026%=      5-min Rain = 0
KEN1 092246Z 08004KT 09/M09 A3031 RMK A01 T00931093  RH  026%=      5-min Rain = 0
KEN1 092247Z 08004KT 09/M09 A3031 RMK A01 T00921093  RH  026%=      5-min Rain = 0
KEN1 092248Z 07003KT 09/M09 A3031 RMK A01 T00921093  RH  026%=      5-min Rain = 0
KEN1 092249Z 07003KT 09/M09 A3031 RMK A01 T00921093  RH  026%=      5-min Rain = 0
KEN1 092250Z 07004KT 09/M09 A3031 RMK A01 T00921093  RH  026%=      5-min Rain = 0
KEN1 092251Z 06004KT 09/M09 A3031 RMK A01 T00911093  RH  026%=      5-min Rain = 0
KEN1 092252Z 07005KT 09/M09 A3031 RMK A01 T00911094  RH  026%=      5-min Rain = 0
KEN1 092253Z 07005KT 09/M09 A3031 RMK A01 T00901094  RH  026%=      5-min Rain = 0
KEN1 092254Z 07005KT 09/M10 A3031 RMK A01 T00891095  RH  026%=      5-min Rain = 0
KEN1 092255Z 07005KT 09/M10 A3031 RMK A01 T00891095  RH  026%=      5-min Rain = 0
KEN1 092256Z 07005KT 09/M09 A3031 RMK A01 T00891093  RH  027%=      5-min Rain = 0
KEN1 092257Z 07005KT 09/M09 A3031 RMK A01 T00881094  RH  027%=      5-min Rain = 0
KEN1 092258Z 06004KT 09/M09 A3031 RMK A01 T00881092  RH  027%=      5-min Rain = 0
KEN1 092259Z 05004KT 09/M09 A3031 RMK A01 T00881093  RH  027%=      5-min Rain = 0
KEN1 092300Z 05004KT 09/M09 A3031 RMK A01 T00881093  RH  027%=      5-min Rain = 0
KEN1 092301Z 06004KT 09/M09 A3031 RMK A01 T00871093  RH  027%=      5-min Rain = 0
KEN1 092302Z 06004KT 09/M09 A3031 RMK A01 T00861093  RH  027%=      5-min Rain = 0
KEN1 092303Z 06004KT 09/M09 A3031 RMK A01 T00861093  RH  027%=      5-min Rain = 0
KEN1 092304Z 07005KT 09/M09 A3031 RMK A01 T00851093  RH  027%=      5-min Rain = 0
KEN1 092305Z 07004KT 09/M10 A3031 RMK A01 T00851095  RH  027%=      5-min Rain = 0
KEN1 092306Z 07005KT 08/M10 A3031 RMK A01 T00841095  RH  027%=      5-min Rain = 0
KEN1 092307Z 06004KT 08/M10 A3031 RMK A01 T00831095  RH  027%=      5-min Rain = 0
KEN1 092308Z 06004KT 08/M10 A3031 RMK A01 T00821096  RH  027%=      5-min Rain = 0
KEN1 092309Z 05004KT 08/M10 A3031 RMK A01 T00811096  RH  027%=      5-min Rain = 0
KEN1 092310Z 06004KT 08/M10 A3031 RMK A01 T00801096  RH  028%=      5-min Rain = 0
KEN1 092311Z 06004KT 08/M10 A3031 RMK A01 T00791096  RH  028%=      5-min Rain = 0
KEN1 092312Z 06004KT 08/M10 A3032 RMK A01 T00771096  RH  028%=      5-min Rain = 0
KEN1 092313Z 06004KT 08/M10 A3032 RMK A01 T00771095  RH  028%=      5-min Rain = 0
KEN1 092314Z 06004KT 08/M10 A3032 RMK A01 T00771095  RH  028%=      5-min Rain = 0
KEN1 092315Z 06005KT 08/M10 A3032 RMK A01 T00761096  RH  028%=      5-min Rain = 0
KEN1 092316Z 05005KT 08/M10 A3032 RMK A01 T00761097  RH  028%=      5-min Rain = 0
KEN1 092317Z 05005KT 07/M10 A3032 RMK A01 T00741098  RH  028%=      5-min Rain = 0
KEN1 092318Z 05004KT 07/M10 A3032 RMK A01 T00731099  RH  028%=      5-min Rain = 0
KEN1 092319Z 05004KT 07/M10 A3032 RMK A01 T00731099  RH  028%=      5-min Rain = 0
KEN1 092320Z 05004KT 07/M10 A3032 RMK A01 T00721099  RH  029%=      5-min Rain = 0
KEN1 092321Z 05004KT 07/M10 A3032 RMK A01 T00711099  RH  029%=      5-min Rain = 0
KEN1 092322Z 05004KT 07/M10 A3032 RMK A01 T00701099  RH  029%=      5-min Rain = 0
KEN1 092323Z 05004KT 07/M10 A3032 RMK A01 T00691099  RH  029%=      5-min Rain = 0
KEN1 092324Z 05005KT 07/M10 A3032 RMK A01 T00691098  RH  029%=      5-min Rain = 0
KEN1 092325Z 05005KT 07/M10 A3032 RMK A01 T00691098  RH  029%=      5-min Rain = 0
KEN1 092326Z 05005KT 07/M10 A3032 RMK A01 T00681099  RH  029%=      5-min Rain = 0
KEN1 092327Z 05005KT 07/M10 A3032 RMK A01 T00671099  RH  030%=      5-min Rain = 0
KEN1 092328Z 05005KT 07/M10 A3032 RMK A01 T00661100  RH  030%=      5-min Rain = 0
KEN1 092329Z 05005KT 07/M10 A3032 RMK A01 T00651100  RH  030%=      5-min Rain = 0
KEN1 092330Z 05005KT 06/M10 A3032 RMK A01 T00641101  RH  030%=      5-min Rain = 0
KEN1 092331Z 05005KT 06/M10 A3032 RMK A01 T00621101  RH  030%=      5-min Rain = 0
KEN1 092332Z 05005KT 06/M10 A3032 RMK A01 T00611101  RH  030%=      5-min Rain = 0
KEN1 092333Z 05005KT 06/M10 A3033 RMK A01 T00601101  RH  030%=      5-min Rain = 0
KEN1 092334Z 05005KT 06/M10 A3033 RMK A01 T00591102  RH  031%=      5-min Rain = 0
KEN1 092335Z 05005KT 06/M10 A3033 RMK A01 T00581102  RH  031%=      5-min Rain = 0
KEN1 092336Z 05005KT 06/M10 A3033 RMK A01 T00581102  RH  031%=      5-min Rain = 0
KEN1 092337Z 05005KT 06/M10 A3033 RMK A01 T00581102  RH  031%=      5-min Rain = 0
KEN1 092338Z 05005KT 06/M10 A3033 RMK A01 T00581102  RH  031%=      5-min Rain = 0
KEN1 092339Z 05005KT 06/M10 A3033 RMK A01 T00571102  RH  031%=      5-min Rain = 0
KEN1 092340Z 05005KT 06/M10 A3033 RMK A01 T00561102  RH  031%=      5-min Rain = 0
KEN1 092341Z 05005KT 06/M10 A3033 RMK A01 T00561102  RH  031%=      5-min Rain = 0
KEN1 092342Z 05005KT 06/M10 A3033 RMK A01 T00561102  RH  031%=      5-min Rain = 0
KEN1 092343Z 05005KT 06/M10 A3033 RMK A01 T00561102  RH  031%=      5-min Rain = 0
KEN1 092344Z 05005KT 06/M10 A3033 RMK A01 T00571102  RH  031%=      5-min Rain = 0
KEN1 092345Z 05005KT 06/M10 A3033 RMK A01 T00571103  RH  031%=      5-min Rain = 0
KEN1 092346Z 04005KT 06/M10 A3033 RMK A01 T00571103  RH  031%=      5-min Rain = 0
KEN1 092347Z 04005KT 06/M10 A3033 RMK A01 T00561104  RH  031%=      5-min Rain = 0
KEN1 092348Z 04005KT 06/M10 A3033 RMK A01 T00551104  RH  031%=      5-min Rain = 0
KEN1 092349Z 04005KT 06/M10 A3033 RMK A01 T00551104  RH  031%=      5-min Rain = 0
KEN1 092350Z 05005KT 05/M10 A3033 RMK A01 T00541104  RH  031%=      5-min Rain = 0
KEN1 092351Z 05005KT 05/M10 A3033 RMK A01 T00531104  RH  031%=      5-min Rain = 0
KEN1 092352Z 05006KT 05/M11 A3033 RMK A01 T00531105  RH  031%=      5-min Rain = 0
KEN1 092353Z 05006KT 05/M11 A3033 RMK A01 T00521105  RH  031%=      5-min Rain = 0
KEN1 092354Z 05006KT 05/M11 A3033 RMK A01 T00521105  RH  031%=      5-min Rain = 0
KEN1 092355Z 05007KT 05/M11 A3033 RMK A01 T00501106  RH  031%=      5-min Rain = 0
KEN1 092356Z 05007KT 05/M11 A3033 RMK A01 T00471107  RH  032%=      5-min Rain = 0
KEN1 092357Z 05007KT 04/M11 A3034 RMK A01 T00441107  RH  032%=      5-min Rain = 0
KEN1 092358Z 05007KT 04/M11 A3034 RMK A01 T00401108  RH  033%=      5-min Rain = 0
KEN1 092359Z 05007KT 04/M11 A3034 RMK A01 T00381108  RH  034%=      5-min Rain = 0
KEN1 100000Z 05007KT 04/M11 A3034 RMK A01 T00361107  RH  034%=      5-min Rain = 0
KEN1 100001Z 05007KT 04/M11 A3034 RMK A01 T00351107  RH  035%=      5-min Rain = 0
KEN1 100002Z 05007KT 03/M11 A3034 RMK A01 T00331107  RH  035%=      5-min Rain = 0
KEN1 100003Z 05007KT 03/M11 A3034 RMK A01 T00311107  RH  036%=      5-min Rain = 0
KEN1 100004Z 05007KT 03/M11 A3034 RMK A01 T00291107  RH  036%=      5-min Rain = 0
KEN1 100005Z 05007KT 03/M11 A3034 RMK A01 T00271107  RH  037%=      5-min Rain = 0
KEN1 100006Z 05007KT 03/M11 A3034 RMK A01 T00251106  RH  037%=      5-min Rain = 0
KEN1 100007Z 05007KT 02/M11 A3034 RMK A01 T00231105  RH  038%=      5-min Rain = 0
KEN1 100008Z 05007KT 02/M11 A3034 RMK A01 T00221105  RH  039%=      5-min Rain = 0
KEN1 100009Z 06007KT 02/M10 A3034 RMK A01 T00221104  RH  039%=      5-min Rain = 0
KEN1 100010Z 06007KT 02/M10 A3034 RMK A01 T00221104  RH  039%=      5-min Rain = 0
KEN1 100011Z 06007KT 02/M10 A3034 RMK A01 T00211103  RH  039%=      5-min Rain = 0
KEN1 100012Z 06007KT 02/M10 A3034 RMK A01 T00221102  RH  039%=      5-min Rain = 0
KEN1 100013Z 06007KT 02/M10 A3035 RMK A01 T00231101  RH  040%=      5-min Rain = 0
KEN1 100014Z 06007KT 02/M10 A3035 RMK A01 T00231101  RH  039%=      5-min Rain = 0
KEN1 100015Z 06007KT 02/M10 A3035 RMK A01 T00241101  RH  039%=      5-min Rain = 0
KEN1 100016Z 07007KT 02/M10 A3035 RMK A01 T00241101  RH  039%=      5-min Rain = 0
KEN1 100017Z 07007KT 03/M10 A3035 RMK A01 T00251101  RH  039%=      5-min Rain = 0
KEN1 100018Z 07007KT 03/M10 A3035 RMK A01 T00251101  RH  039%=      5-min Rain = 0
KEN1 100019Z 07006KT 02/M10 A3035 RMK A01 T00241102  RH  039%=      5-min Rain = 0
KEN1 100020Z 07006KT 02/M10 A3035 RMK A01 T00231102  RH  039%=      5-min Rain = 0
KEN1 100021Z 07006KT 02/M10 A3035 RMK A01 T00231102  RH  039%=      5-min Rain = 0
KEN1 100022Z 08006KT 02/M10 A3035 RMK A01 T00221102  RH  039%=      5-min Rain = 0
KEN1 100023Z 08006KT 02/M10 A3035 RMK A01 T00211103  RH  039%=      5-min Rain = 0
KEN1 100024Z 08006KT 02/M10 A3035 RMK A01 T00201104  RH  039%=      5-min Rain = 0
KEN1 100025Z 07006KT 02/M10 A3035 RMK A01 T00191104  RH  039%=      5-min Rain = 0
KEN1 100026Z 07006KT 02/M11 A3035 RMK A01 T00181105  RH  040%=      5-min Rain = 0
KEN1 100027Z 08006KT 02/M11 A3035 RMK A01 T00181105  RH  040%=      5-min Rain = 0
KEN1 100028Z 08006KT 02/M11 A3035 RMK A01 T00191105  RH  040%=      5-min Rain = 0
KEN1 100029Z 08006KT 02/M11 A3035 RMK A01 T00181106  RH  039%=      5-min Rain = 0
KEN1 100030Z 08006KT 02/M11 A3035 RMK A01 T00181106  RH  039%=      5-min Rain = 0
KEN1 100031Z 08006KT 02/M11 A3035 RMK A01 T00191106  RH  039%=      5-min Rain = 0
KEN1 100032Z 09006KT 02/M11 A3035 RMK A01 T00191106  RH  039%=      5-min Rain = 0
KEN1 100033Z 09005KT 02/M11 A3035 RMK A01 T00191107  RH  039%=      5-min Rain = 0
KEN1 100034Z 09005KT 02/M11 A3035 RMK A01 T00221106  RH  038%=      5-min Rain = 0
KEN1 100035Z 09006KT 02/M11 A3035 RMK A01 T00231107  RH  038%=      5-min Rain = 0
KEN1 100036Z 09006KT 02/M11 A3035 RMK A01 T00241108  RH  037%=      5-min Rain = 0
KEN1 100037Z 09006KT 03/M11 A3035 RMK A01 T00251108  RH  037%=      5-min Rain = 0
KEN1 100038Z 09005KT 03/M11 A3035 RMK A01 T00261109  RH  036%=      5-min Rain = 0
KEN1 100039Z 09005KT 03/M11 A3035 RMK A01 T00271109  RH  036%=      5-min Rain = 0
KEN1 100040Z 09005KT 03/M11 A3035 RMK A01 T00281110  RH  036%=      5-min Rain = 0
KEN1 100041Z 09005KT 03/M11 A3035 RMK A01 T00291110  RH  035%=      5-min Rain = 0
KEN1 100042Z 10006KT 03/M11 A3035 RMK A01 T00301111  RH  035%=      5-min Rain = 0
KEN1 100043Z 10006KT 03/M11 A3036 RMK A01 T00311111  RH  035%=      5-min Rain = 0
KEN1 100044Z 10006KT 03/M11 A3036 RMK A01 T00311111  RH  034%=      5-min Rain = 0
KEN1 100045Z 10005KT 03/M11 A3036 RMK A01 T00301111  RH  034%=      5-min Rain = 0
KEN1 100046Z 10005KT 03/M11 A3036 RMK A01 T00301111  RH  035%=      5-min Rain = 0
KEN1 100047Z 10005KT 03/M11 A3036 RMK A01 T00301111  RH  035%=      5-min Rain = 0
KEN1 100048Z 10005KT 03/M11 A3036 RMK A01 T00301111  RH  035%=      5-min Rain = 0
KEN1 100049Z 10005KT 03/M11 A3036 RMK A01 T00301112  RH  035%=      5-min Rain = 0
KEN1 100050Z 10005KT 03/M11 A3036 RMK A01 T00301111  RH  035%=      5-min Rain = 0
KEN1 100051Z 10006KT 03/M11 A3036 RMK A01 T00291110  RH  035%=      5-min Rain = 0
KEN1 100052Z 10006KT 03/M11 A3036 RMK A01 T00271109  RH  036%=      5-min Rain = 0
KEN1 100053Z 10006KT 03/M11 A3036 RMK A01 T00251109  RH  037%=      5-min Rain = 0
KEN1 100054Z 10006KT 02/M11 A3036 RMK A01 T00241108  RH  037%=      5-min Rain = 0
KEN1 100055Z 10006KT 02/M11 A3036 RMK A01 T00231108  RH  037%=      5-min Rain = 0
KEN1 100056Z 10006KT 02/M11 A3036 RMK A01 T00221107  RH  038%=      5-min Rain = 0
KEN1 100057Z 10007KT 02/M11 A3036 RMK A01 T00211107  RH  038%=      5-min Rain = 0
KEN1 100058Z 10007KT 02/M11 A3036 RMK A01 T00201107  RH  039%=      5-min Rain = 0
KEN1 100059Z 09007KT 02/M11 A3036 RMK A01 T00191107  RH  039%=      5-min Rain = 0
KEN1 100100Z 09007KT 02/M11 A3036 RMK A01 T00171107  RH  039%=      5-min Rain = 0
KEN1 100101Z 09007KT 02/M11 A3036 RMK A01 T00171108  RH  039%=      5-min Rain = 0
KEN1 100102Z 09007KT 02/M11 A3036 RMK A01 T00161108  RH  039%=      5-min Rain = 0
KEN1 100103Z 09007KT 02/M11 A3036 RMK A01 T00161108  RH  039%=      5-min Rain = 0
KEN1 100104Z 09007KT 02/M11 A3036 RMK A01 T00161108  RH  039%=      5-min Rain = 0
KEN1 100105Z 09007KT 02/M11 A3036 RMK A01 T00161108  RH  039%=      5-min Rain = 0
KEN1 100106Z 09007KT 02/M11 A3036 RMK A01 T00151109  RH  039%=      5-min Rain = 0
KEN1 100107Z 09007KT 02/M11 A3036 RMK A01 T00151109  RH  039%=      5-min Rain = 0
KEN1 100108Z 09007KT 01/M11 A3036 RMK A01 T00141109  RH  040%=      5-min Rain = 0
KEN1 100109Z 09008KT 01/M11 A3036 RMK A01 T00141108  RH  040%=      5-min Rain = 0
KEN1 100110Z 09008KT 01/M11 A3036 RMK A01 T00131108  RH  040%=      5-min Rain = 0
KEN1 100111Z 09008KT 01/M11 A3036 RMK A01 T00141107  RH  040%=      5-min Rain = 0
KEN1 100112Z 09008KT 01/M11 A3036 RMK A01 T00141107  RH  040%=      5-min Rain = 0
KEN1 100113Z 09007KT 01/M11 A3036 RMK A01 T00141107  RH  040%=      5-min Rain = 0
KEN1 100114Z 09008KT 01/M11 A3036 RMK A01 T00141107  RH  040%=      5-min Rain = 0
KEN1 100115Z 09008KT 02/M11 A3036 RMK A01 T00151106  RH  040%=      5-min Rain = 0
KEN1 100116Z 09009KT 02/M11 A3036 RMK A01 T00151106  RH  040%=      5-min Rain = 0
KEN1 100117Z 10009KT 02/M11 A3036 RMK A01 T00151105  RH  041%=      5-min Rain = 0
KEN1 100118Z 10008KT 01/M10 A3036 RMK A01 T00141104  RH  041%=      5-min Rain = 0
KEN1 100119Z 09008KT 01/M10 A3036 RMK A01 T00141102  RH  042%=      5-min Rain = 0
KEN1 100120Z 09007KT 01/M10 A3036 RMK A01 T00131101  RH  042%=      5-min Rain = 0
KEN1 100121Z 09007KT 01/M10 A3036 RMK A01 T00131100  RH  043%=      5-min Rain = 0
KEN1 100122Z 10007KT 01/M10 A3036 RMK A01 T00131100  RH  043%=      5-min Rain = 0
KEN1 100123Z 10008KT 01/M10 A3036 RMK A01 T00131100  RH  043%=      5-min Rain = 0
KEN1 100124Z 10008KT 01/M10 A3036 RMK A01 T00131099  RH  043%=      5-min Rain = 0
KEN1 100125Z 10008KT 01/M10 A3036 RMK A01 T00131099  RH  043%=      5-min Rain = 0
KEN1 100126Z 10008KT 01/M10 A3036 RMK A01 T00131098  RH  043%=      5-min Rain = 0
KEN1 100127Z 10008KT 01/M10 A3036 RMK A01 T00131097  RH  044%=      5-min Rain = 0
KEN1 100128Z 10008KT 01/M10 A3036 RMK A01 T00131095  RH  044%=      5-min Rain = 0
KEN1 100129Z 10008KT 01/M10 A3036 RMK A01 T00131095  RH  044%=      5-min Rain = 0
KEN1 100130Z 10008KT 01/M09 A3036 RMK A01 T00131094  RH  045%=      5-min Rain = 0
KEN1 100131Z 10008KT 01/M09 A3036 RMK A01 T00131094  RH  045%=      5-min Rain = 0
KEN1 100132Z 10008KT 01/M09 A3036 RMK A01 T00131094  RH  045%=      5-min Rain = 0
KEN1 100133Z 10008KT 01/M09 A3036 RMK A01 T00131094  RH  045%=      5-min Rain = 0
KEN1 100134Z 10007KT 01/M09 A3036 RMK A01 T00121094  RH  045%=      5-min Rain = 0
KEN1 100135Z 10007KT 01/M09 A3036 RMK A01 T00121094  RH  045%=      5-min Rain = 0
KEN1 100136Z 10007KT 01/M09 A3036 RMK A01 T00101094  RH  045%=      5-min Rain = 0
KEN1 100137Z 10007KT 01/M09 A3036 RMK A01 T00091094  RH  046%=      5-min Rain = 0
KEN1 100138Z 10007KT 01/M10 A3036 RMK A01 T00081095  RH  046%=      5-min Rain = 0
KEN1 100139Z 11006KT 01/M09 A3036 RMK A01 T00061094  RH  047%=      5-min Rain = 0
KEN1 100140Z 11006KT 01/M09 A3036 RMK A01 T00051094  RH  047%=      5-min Rain = 0
KEN1 100141Z 11006KT 01/M10 A3036 RMK A01 T00051095  RH  047%=      5-min Rain = 0
KEN1 100142Z 11006KT 01/M10 A3036 RMK A01 T00051095  RH  047%=      5-min Rain = 0
KEN1 100143Z 11006KT 01/M09 A3036 RMK A01 T00051094  RH  047%=      5-min Rain = 0
KEN1 100144Z 11006KT 01/M09 A3036 RMK A01 T00051094  RH  047%=      5-min Rain = 0
KEN1 100145Z 11006KT 01/M09 A3036 RMK A01 T00051094  RH  047%=      5-min Rain = 0
KEN1 100146Z 11006KT 01/M09 A3036 RMK A01 T00061094  RH  047%=      5-min Rain = 0
KEN1 100147Z 11006KT 01/M09 A3036 RMK A01 T00061093  RH  047%=      5-min Rain = 0
KEN1 100148Z 10007KT 01/M09 A3036 RMK A01 T00071093  RH  047%=      5-min Rain = 0
KEN1 100149Z 11006KT 01/M09 A3036 RMK A01 T00071092  RH  047%=      5-min Rain = 0
KEN1 100150Z 11006KT 01/M09 A3036 RMK A01 T00071092  RH  048%=      5-min Rain = 0
KEN1 100151Z 11005KT 01/M09 A3036 RMK A01 T00061092  RH  048%=      5-min Rain = 0
KEN1 100152Z 11005KT 01/M09 A3036 RMK A01 T00051091  RH  048%=      5-min Rain = 0
KEN1 100153Z 11005KT 00/M09 A3036 RMK A01 T00041091  RH  049%=      5-min Rain = 0
KEN1 100154Z 11005KT 00/M09 A3036 RMK A01 T00021091  RH  049%=      5-min Rain = 0
KEN1 100155Z 11005KT 00/M09 A3036 RMK A01 T00011091  RH  050%=      5-min Rain = 0
KEN1 100156Z 11005KT M00/M09 A3036 RMK A01 T10021091  RH  051%=      5-min Rain = 0
KEN1 100157Z 11005KT M00/M09 A3036 RMK A01 T10041090  RH  052%=      5-min Rain = 0
KEN1 100158Z 11005KT M01/M09 A3036 RMK A01 T10061090  RH  053%=      5-min Rain = 0
KEN1 100159Z 12005KT M01/M09 A3036 RMK A01 T10081089  RH  054%=      5-min Rain = 0
KEN1 100200Z 12004KT M01/M09 A3036 RMK A01 T10111089  RH  055%=      5-min Rain = 0
KEN1 100201Z 13004KT M02/M09 A3036 RMK A01 T10151090  RH  057%=      5-min Rain = 0
KEN1 100202Z 13004KT M02/M09 A3036 RMK A01 T10181092  RH  057%=      5-min Rain = 0
KEN1 100203Z 14004KT M02/M09 A3036 RMK A01 T10191093  RH  057%=      5-min Rain = 0
KEN1 100204Z 14004KT M02/M09 A3036 RMK A01 T10201093  RH  057%=      5-min Rain = 0
KEN1 100205Z 15004KT M02/M09 A3036 RMK A01 T10201093  RH  057%=      5-min Rain = 0
KEN1 100206Z 16004KT M02/M09 A3036 RMK A01 T10191092  RH  057%=      5-min Rain = 0
KEN1 100207Z 17004KT M02/M09 A3036 RMK A01 T10191092  RH  057%=      5-min Rain = 0
KEN1 100208Z 18003KT M02/M09 A3036 RMK A01 T10181093  RH  057%=      5-min Rain = 0
KEN1 100209Z 19003KT M02/M09 A3036 RMK A01 T10181094  RH  056%=      5-min Rain = 0
KEN1 100210Z 19003KT M02/M09 A3036 RMK A01 T10191094  RH  056%=      5-min Rain = 0
KEN1 100211Z 20003KT M02/M10 A3036 RMK A01 T10181095  RH  056%=      5-min Rain = 0
KEN1 100212Z 20002KT M02/M10 A3036 RMK A01 T10171095  RH  055%=      5-min Rain = 0
KEN1 100213Z 21002KT M02/M10 A3036 RMK A01 T10171095  RH  055%=      5-min Rain = 0
KEN1 100214Z 21001KT M02/M10 A3036 RMK A01 T10191095  RH  056%=      5-min Rain = 0
KEN1 100215Z 22000KT M02/M10 A3036 RMK A01 T10201095  RH  056%=      5-min Rain = 0
KEN1 100216Z 02007KT M02/M10 A3036 RMK A01 T10231095  RH  058%=      5-min Rain = 0
KEN1 100217Z 02004KT M02/M09 A3036 RMK A01 T10211093  RH  058%=      5-min Rain = 0
KEN1 100218Z 02002KT M01/M09 A3036 RMK A01 T10111088  RH  056%=      5-min Rain = 0
KEN1 100219Z 05002KT M01/M09 A3036 RMK A01 T10051088  RH  054%=      5-min Rain = 0
KEN1 100220Z 05002KT M00/M09 A3036 RMK A01 T10031089  RH  052%=      5-min Rain = 0
KEN1 100221Z 05002KT M00/M09 A3036 RMK A01 T10031090  RH  052%=      5-min Rain = 0
KEN1 100222Z 04002KT M00/M09 A3036 RMK A01 T10021090  RH  052%=      5-min Rain = 0
KEN1 100223Z 03002KT M00/M09 A3036 RMK A01 T10021090  RH  052%=      5-min Rain = 0
KEN1 100224Z 02001KT M00/M09 A3036 RMK A01 T10041091  RH  052%=      5-min Rain = 0
KEN1 100225Z 02001KT M01/M09 A3036 RMK A01 T10071091  RH  053%=      5-min Rain = 0
KEN1 100226Z 02000KT M01/M09 A3037 RMK A01 T10091091  RH  054%=      5-min Rain = 0
KEN1 100227Z 35001KT M01/M09 A3037 RMK A01 T10091090  RH  054%=      5-min Rain = 0
KEN1 100228Z 33001KT M01/M09 A3037 RMK A01 T10091090  RH  054%=      5-min Rain = 0
KEN1 100229Z 33001KT M01/M09 A3037 RMK A01 T10091090  RH  054%=      5-min Rain = 0
KEN1 100230Z 30000KT M01/M09 A3037 RMK A01 T10091090  RH  054%=      5-min Rain = 0
KEN1 100231Z 00000KT M01/M09 A3037 RMK A01 T10091090  RH  054%=      5-min Rain = 0
KEN1 100232Z 00000KT M01/M09 A3037 RMK A01 T10091090  RH  054%=      5-min Rain = 0
KEN1 100233Z 00000KT M01/M09 A3037 RMK A01 T10101090  RH  054%=      5-min Rain = 0
KEN1 100234Z 29001KT M01/M09 A3037 RMK A01 T10101090  RH  055%=      5-min Rain = 0
KEN1 100235Z 27001KT M01/M09 A3037 RMK A01 T10101090  RH  055%=      5-min Rain = 0
KEN1 100236Z 27001KT M01/M09 A3037 RMK A01 T10101092  RH  054%=      5-min Rain = 0
KEN1 100237Z 28002KT M01/M09 A3037 RMK A01 T10101093  RH  053%=      5-min Rain = 0
KEN1 100238Z 28002KT M01/M09 A3037 RMK A01 T10101093  RH  053%=      5-min Rain = 0
KEN1 100239Z 28001KT M01/M09 A3037 RMK A01 T10111093  RH  053%=      5-min Rain = 0
KEN1 100240Z 28001KT M01/M09 A3037 RMK A01 T10111093  RH  054%=      5-min Rain = 0
KEN1 100241Z 26001KT M01/M09 A3037 RMK A01 T10121093  RH  054%=      5-min Rain = 0
KEN1 100242Z 26002KT M01/M09 A3037 RMK A01 T10131094  RH  054%=      5-min Rain = 0
KEN1 100243Z 27002KT M01/M09 A3037 RMK A01 T10141094  RH  054%=      5-min Rain = 0
KEN1 100244Z 27002KT M02/M10 A3037 RMK A01 T10161095  RH  055%=      5-min Rain = 0
KEN1 100245Z 27002KT M02/M10 A3037 RMK A01 T10161095  RH  055%=      5-min Rain = 0
KEN1 100246Z 26002KT M02/M10 A3037 RMK A01 T10161095  RH  055%=      5-min Rain = 0
KEN1 100247Z 26002KT M02/M10 A3037 RMK A01 T10161095  RH  055%=      5-min Rain = 0
KEN1 100248Z 28002KT M02/M10 A3037 RMK A01 T10171096  RH  055%=      5-min Rain = 0
KEN1 100249Z 27002KT M02/M10 A3037 RMK A01 T10171096  RH  055%=      5-min Rain = 0
KEN1 100250Z 27002KT M02/M10 A3037 RMK A01 T10161095  RH  055%=      5-min Rain = 0
KEN1 100251Z 25003KT M02/M10 A3037 RMK A01 T10161095  RH  055%=      5-min Rain = 0
KEN1 100252Z 24002KT M02/M10 A3037 RMK A01 T10161095  RH  055%=      5-min Rain = 0
KEN1 100253Z 24003KT M02/M10 A3037 RMK A01 T10161095  RH  055%=      5-min Rain = 0
KEN1 100254Z 24002KT M02/M10 A3037 RMK A01 T10161096  RH  055%=      5-min Rain = 0
KEN1 100255Z 25001KT M02/M10 A3038 RMK A01 T10161096  RH  054%=      5-min Rain = 0
KEN1 100256Z 25001KT M02/M10 A3038 RMK A01 T10161096  RH  055%=      5-min Rain = 0
KEN1 100257Z 24002KT M02/M10 A3037 RMK A01 T10161096  RH  055%=      5-min Rain = 0
KEN1 100258Z 23002KT M02/M10 A3037 RMK A01 T10161096  RH  055%=      5-min Rain = 0
KEN1 100259Z 24003KT M02/M10 A3037 RMK A01 T10161096  RH  055%=      5-min Rain = 0
KEN1 100300Z 23002KT M02/M10 A3037 RMK A01 T10171096  RH  055%=      5-min Rain = 0
KEN1 100301Z 21002KT M02/M10 A3037 RMK A01 T10201097  RH  056%=      5-min Rain = 0
KEN1 100302Z 23002KT M02/M10 A3037 RMK A01 T10201096  RH  056%=      5-min Rain = 0
KEN1 100303Z 24001KT M02/M10 A3037 RMK A01 T10201095  RH  056%=      5-min Rain = 0
KEN1 100304Z 23001KT M02/M10 A3037 RMK A01 T10201096  RH  056%=      5-min Rain = 0
KEN1 100305Z 23002KT M02/M10 A3037 RMK A01 T10201096  RH  056%=      5-min Rain = 0
KEN1 100306Z 24002KT M02/M10 A3037 RMK A01 T10211095  RH  057%=      5-min Rain = 0
KEN1 100307Z 25002KT M02/M09 A3037 RMK A01 T10201094  RH  057%=      5-min Rain = 0
KEN1 100308Z 25003KT M02/M09 A3037 RMK A01 T10181094  RH  056%=      5-min Rain = 0
KEN1 100309Z 25003KT M02/M09 A3037 RMK A01 T10181094  RH  056%=      5-min Rain = 0
KEN1 100310Z 24003KT M02/M09 A3037 RMK A01 T10181094  RH  056%=      5-min Rain = 0
KEN1 100311Z 24004KT M02/M09 A3037 RMK A01 T10171094  RH  056%=      5-min Rain = 0
KEN1 100312Z 24003KT M02/M09 A3037 RMK A01 T10161093  RH  056%=      5-min Rain = 0
KEN1 100313Z 24003KT M02/M09 A3037 RMK A01 T10151093  RH  056%=      5-min Rain = 0
KEN1 100314Z 24003KT M02/M09 A3037 RMK A01 T10151093  RH  056%=      5-min Rain = 0
KEN1 100315Z 24002KT M02/M09 A3037 RMK A01 T10151092  RH  055%=      5-min Rain = 0
KEN1 100316Z 24002KT M01/M09 A3037 RMK A01 T10141093  RH  055%=      5-min Rain = 0
KEN1 100317Z 24002KT M01/M09 A3037 RMK A01 T10141093  RH  055%=      5-min Rain = 0
KEN1 100318Z 25002KT M01/M09 A3037 RMK A01 T10141094  RH  055%=      5-min Rain = 0
KEN1 100319Z 25002KT M01/M09 A3037 RMK A01 T10141094  RH  055%=      5-min Rain = 0
KEN1 100320Z 25003KT M02/M09 A3037 RMK A01 T10151094  RH  055%=      5-min Rain = 0
KEN1 100321Z 26003KT M02/M09 A3038 RMK A01 T10151094  RH  055%=      5-min Rain = 0
KEN1 100322Z 25003KT M02/M09 A3038 RMK A01 T10161094  RH  055%=      5-min Rain = 0
KEN1 100323Z 25003KT M02/M09 A3038 RMK A01 T10161094  RH  055%=      5-min Rain = 0
KEN1 100324Z 25003KT M02/M09 A3038 RMK A01 T10151093  RH  055%=      5-min Rain = 0
KEN1 100325Z 25003KT M02/M09 A3038 RMK A01 T10151093  RH  055%=      5-min Rain = 0
KEN1 100326Z 25003KT M01/M09 A3038 RMK A01 T10141093  RH  055%=      5-min Rain = 0
KEN1 100327Z 25003KT M01/M09 A3038 RMK A01 T10141094  RH  055%=      5-min Rain = 0
KEN1 100328Z 24004KT M01/M09 A3038 RMK A01 T10141093  RH  055%=      5-min Rain = 0
KEN1 100329Z 24004KT M01/M09 A3038 RMK A01 T10141093  RH  055%=      5-min Rain = 0
KEN1 100330Z 24004KT M02/M09 A3038 RMK A01 T10161094  RH  055%=      5-min Rain = 0
KEN1 100331Z 24004KT M02/M09 A3038 RMK A01 T10171094  RH  056%=      5-min Rain = 0
KEN1 100332Z 24004KT M02/M09 A3038 RMK A01 T10191094  RH  057%=      5-min Rain = 0
KEN1 100333Z 25004KT M02/M09 A3038 RMK A01 T10211094  RH  057%=      5-min Rain = 0
KEN1 100334Z 25004KT M02/M09 A3038 RMK A01 T10211094  RH  058%=      5-min Rain = 0
KEN1 100335Z 25005KT M02/M09 A3038 RMK A01 T10231094  RH  058%=      5-min Rain = 0
KEN1 100336Z 25005KT M02/M09 A3038 RMK A01 T10241094  RH  059%=      5-min Rain = 0
KEN1 100337Z 25004KT M03/M09 A3038 RMK A01 T10251093  RH  059%=      5-min Rain = 0
KEN1 100338Z 25004KT M03/M09 A3038 RMK A01 T10261093  RH  060%=      5-min Rain = 0
KEN1 100339Z 25004KT M03/M09 A3038 RMK A01 T10281093  RH  061%=      5-min Rain = 0
KEN1 100340Z 25003KT M03/M09 A3038 RMK A01 T10281092  RH  061%=      5-min Rain = 0
KEN1 100341Z 26004KT M03/M09 A3038 RMK A01 T10301093  RH  062%=      5-min Rain = 0
KEN1 100342Z 26004KT M03/M09 A3038 RMK A01 T10311093  RH  062%=      5-min Rain = 0
KEN1 100343Z 26003KT M03/M09 A3038 RMK A01 T10311093  RH  063%=      5-min Rain = 0
KEN1 100344Z 26003KT M03/M09 A3038 RMK A01 T10321093  RH  063%=      5-min Rain = 0
KEN1 100345Z 25003KT M03/M09 A3038 RMK A01 T10321093  RH  063%=      5-min Rain = 0
KEN1 100346Z 24003KT M03/M09 A3038 RMK A01 T10321093  RH  063%=      5-min Rain = 0
KEN1 100347Z 24003KT M03/M09 A3038 RMK A01 T10321093  RH  063%=      5-min Rain = 0
KEN1 100348Z 24003KT M03/M09 A3038 RMK A01 T10311093  RH  063%=      5-min Rain = 0
KEN1 100349Z 24003KT M03/M09 A3038 RMK A01 T10301092  RH  062%=      5-min Rain = 0
KEN1 100350Z 24003KT M03/M09 A3038 RMK A01 T10291093  RH  062%=      5-min Rain = 0
KEN1 100351Z 23003KT M03/M09 A3038 RMK A01 T10291093  RH  061%=      5-min Rain = 0
KEN1 100352Z 23003KT M03/M09 A3038 RMK A01 T10281093  RH  061%=      5-min Rain = 0
KEN1 100353Z 22003KT M03/M09 A3037 RMK A01 T10271093  RH  060%=      5-min Rain = 0
KEN1 100354Z 22003KT M03/M09 A3037 RMK A01 T10271094  RH  060%=      5-min Rain = 0
KEN1 100355Z 21003KT M03/M09 A3037 RMK A01 T10261094  RH  060%=      5-min Rain = 0
KEN1 100356Z 21003KT M03/M09 A3037 RMK A01 T10251094  RH  059%=      5-min Rain = 0
KEN1 100357Z 21003KT M02/M09 A3037 RMK A01 T10231094  RH  058%=      5-min Rain = 0
KEN1 100358Z 21003KT M02/M09 A3037 RMK A01 T10231094  RH  058%=      5-min Rain = 0
KEN1 100359Z 21003KT M02/M09 A3037 RMK A01 T10221094  RH  058%=      5-min Rain = 0
KEN1 100400Z 21004KT M02/M09 A3037 RMK A01 T10211094  RH  057%=      5-min Rain = 0
KEN1 100401Z 21003KT M02/M09 A3037 RMK A01 T10211094  RH  057%=      5-min Rain = 0
KEN1 100402Z 21004KT M02/M09 A3037 RMK A01 T10211093  RH  058%=      5-min Rain = 0
KEN1 100403Z 20004KT M02/M09 A3037 RMK A01 T10211093  RH  058%=      5-min Rain = 0
KEN1 100404Z 19004KT M02/M09 A3037 RMK A01 T10211093  RH  058%=      5-min Rain = 0
KEN1 100405Z 19004KT M02/M09 A3037 RMK A01 T10211093  RH  058%=      5-min Rain = 0
KEN1 100406Z 19004KT M02/M09 A3037 RMK A01 T10221093  RH  058%=      5-min Rain = 0
KEN1 100407Z 19004KT M02/M09 A3037 RMK A01 T10241093  RH  059%=      5-min Rain = 0
KEN1 100408Z 18004KT M03/M09 A3037 RMK A01 T10261093  RH  060%=      5-min Rain = 0
KEN1 100409Z 18004KT M03/M09 A3037 RMK A01 T10281093  RH  061%=      5-min Rain = 0
KEN1 100410Z 18004KT M03/M09 A3037 RMK A01 T10301093  RH  062%=      5-min Rain = 0
KEN1 100411Z 17004KT M03/M09 A3037 RMK A01 T10321093  RH  062%=      5-min Rain = 0
KEN1 100412Z 17004KT M03/M09 A3037 RMK A01 T10331093  RH  063%=      5-min Rain = 0
KEN1 100413Z 17005KT M03/M09 A3037 RMK A01 T10331093  RH  064%=      5-min Rain = 0
KEN1 100414Z 17004KT M04/M09 A3037 RMK A01 T10351093  RH  064%=      5-min Rain = 0
KEN1 100415Z 17004KT M04/M09 A3037 RMK A01 T10381094  RH  065%=      5-min Rain = 0
KEN1 100416Z 16004KT M04/M09 A3038 RMK A01 T10401094  RH  066%=      5-min Rain = 0
KEN1 100417Z 16004KT M04/M09 A3038 RMK A01 T10401093  RH  066%=      5-min Rain = 0
KEN1 100418Z 17004KT M04/M09 A3038 RMK A01 T10411094  RH  067%=      5-min Rain = 0
KEN1 100419Z 18004KT M04/M09 A3038 RMK A01 T10411093  RH  067%=      5-min Rain = 0
KEN1 100420Z 18004KT M04/M09 A3038 RMK A01 T10411093  RH  067%=      5-min Rain = 0
KEN1 100421Z 17004KT M04/M09 A3038 RMK A01 T10411093  RH  067%=      5-min Rain = 0
KEN1 100422Z 17004KT M04/M09 A3038 RMK A01 T10411093  RH  067%=      5-min Rain = 0
KEN1 100423Z 17004KT M04/M09 A3038 RMK A01 T10411093  RH  067%=      5-min Rain = 0
KEN1 100424Z 17005KT M04/M09 A3038 RMK A01 T10421093  RH  067%=      5-min Rain = 0
KEN1 100425Z 18005KT M04/M09 A3038 RMK A01 T10431094  RH  068%=      5-min Rain = 0
KEN1 100426Z 18005KT M04/M09 A3038 RMK A01 T10431093  RH  068%=      5-min Rain = 0
KEN1 100427Z 17004KT M04/M09 A3038 RMK A01 T10431093  RH  068%=      5-min Rain = 0
KEN1 100428Z 16004KT M04/M09 A3038 RMK A01 T10431093  RH  068%=      5-min Rain = 0
KEN1 100429Z 16004KT M04/M09 A3038 RMK A01 T10431093  RH  068%=      5-min Rain = 0
KEN1 100430Z 16005KT M04/M09 A3038 RMK A01 T10441094  RH  068%=      5-min Rain = 0
KEN1 100431Z 17004KT M04/M09 A3038 RMK A01 T10441093  RH  069%=      5-min Rain = 0
KEN1 100432Z 17005KT M04/M09 A3038 RMK A01 T10441093  RH  069%=      5-min Rain = 0
KEN1 100433Z 17005KT M04/M09 A3038 RMK A01 T10441093  RH  069%=      5-min Rain = 0
KEN1 100434Z 17005KT M05/M09 A3038 RMK A01 T10461094  RH  069%=      5-min Rain = 0
KEN1 100435Z 18005KT M05/M09 A3038 RMK A01 T10481094  RH  070%=      5-min Rain = 0
KEN1 100436Z 18005KT M05/M09 A3038 RMK A01 T10491094  RH  071%=      5-min Rain = 0
KEN1 100437Z 18005KT M05/M09 A3038 RMK A01 T10491093  RH  071%=      5-min Rain = 0
KEN1 100438Z 18005KT M05/M09 A3038 RMK A01 T10491093  RH  072%=      5-min Rain = 0
KEN1 100439Z 18005KT M05/M09 A3038 RMK A01 T10501093  RH  072%=      5-min Rain = 0
KEN1 100440Z 18005KT M05/M09 A3038 RMK A01 T10491092  RH  072%=      5-min Rain = 0
KEN1 100441Z 18005KT M05/M09 A3038 RMK A01 T10501092  RH  072%=      5-min Rain = 0
KEN1 100442Z 18004KT M05/M09 A3038 RMK A01 T10501092  RH  072%=      5-min Rain = 0
KEN1 100443Z 17004KT M05/M09 A3038 RMK A01 T10491091  RH  072%=      5-min Rain = 0
KEN1 100444Z 17004KT M05/M09 A3038 RMK A01 T10481090  RH  072%=      5-min Rain = 0
KEN1 100445Z 17004KT M05/M09 A3038 RMK A01 T10471090  RH  072%=      5-min Rain = 0
KEN1 100446Z 17004KT M05/M09 A3038 RMK A01 T10461091  RH  071%=      5-min Rain = 0
KEN1 100447Z 17004KT M05/M09 A3038 RMK A01 T10461091  RH  071%=      5-min Rain = 0
KEN1 100448Z 17004KT M05/M09 A3038 RMK A01 T10461091  RH  071%=      5-min Rain = 0
KEN1 100449Z 17003KT M05/M09 A3038 RMK A01 T10461091  RH  071%=      5-min Rain = 0
KEN1 100450Z 18003KT M05/M09 A3038 RMK A01 T10461091  RH  071%=      5-min Rain = 0
KEN1 100451Z 18003KT M05/M09 A3038 RMK A01 T10451090  RH  070%=      5-min Rain = 0
KEN1 100452Z 18003KT M04/M09 A3038 RMK A01 T10441090  RH  070%=      5-min Rain = 0
KEN1 100453Z 18003KT M04/M09 A3038 RMK A01 T10431090  RH  070%=      5-min Rain = 0
KEN1 100454Z 18003KT M04/M09 A3038 RMK A01 T10431090  RH  070%=      5-min Rain = 0
KEN1 100455Z 18003KT M04/M09 A3038 RMK A01 T10431091  RH  069%=      5-min Rain = 0
KEN1 100456Z 18004KT M04/M09 A3038 RMK A01 T10431090  RH  070%=      5-min Rain = 0
KEN1 100457Z 19004KT M04/M09 A3038 RMK A01 T10431091  RH  070%=      5-min Rain = 0
KEN1 100458Z 18003KT M04/M09 A3038 RMK A01 T10441091  RH  070%=      5-min Rain = 0
KEN1 100459Z 18004KT M04/M09 A3038 RMK A01 T10441091  RH  070%=      5-min Rain = 0
KEN1 100500Z 18004KT M05/M09 A3038 RMK A01 T10451091  RH  070%=      5-min Rain = 0
KEN1 100501Z 18004KT M05/M09 A3038 RMK A01 T10451091  RH  070%=      5-min Rain = 0
KEN1 100502Z 18004KT M05/M09 A3038 RMK A01 T10461091  RH  071%=      5-min Rain = 0
KEN1 100503Z 18004KT M05/M09 A3038 RMK A01 T10461091  RH  071%=      5-min Rain = 0
KEN1 100504Z 18004KT M05/M09 A3038 RMK A01 T10471092  RH  071%=      5-min Rain = 0
KEN1 100505Z 18004KT M05/M09 A3038 RMK A01 T10481092  RH  071%=      5-min Rain = 0
KEN1 100506Z 18004KT M05/M09 A3039 RMK A01 T10491092  RH  072%=      5-min Rain = 0
KEN1 100507Z 18004KT M05/M09 A3039 RMK A01 T10501092  RH  073%=      5-min Rain = 0
KEN1 100508Z 18003KT M05/M09 A3039 RMK A01 T10511092  RH  073%=      5-min Rain = 0
KEN1 100509Z 18004KT M05/M09 A3039 RMK A01 T10511092  RH  073%=      5-min Rain = 0
KEN1 100510Z 18003KT M05/M09 A3038 RMK A01 T10511091  RH  073%=      5-min Rain = 0
KEN1 100511Z 18003KT M05/M09 A3038 RMK A01 T10521092  RH  074%=      5-min Rain = 0
KEN1 100512Z 18004KT M05/M09 A3038 RMK A01 T10521091  RH  074%=      5-min Rain = 0
KEN1 100513Z 18004KT M05/M09 A3038 RMK A01 T10521091  RH  074%=      5-min Rain = 0
KEN1 100514Z 18004KT M05/M09 A3038 RMK A01 T10511091  RH  074%=      5-min Rain = 0
KEN1 100515Z 18005KT M05/M09 A3038 RMK A01 T10511091  RH  073%=      5-min Rain = 0
KEN1 100516Z 18005KT M05/M09 A3038 RMK A01 T10511092  RH  073%=      5-min Rain = 0
KEN1 100517Z 18004KT M05/M09 A3039 RMK A01 T10521092  RH  073%=      5-min Rain = 0
KEN1 100518Z 18004KT M05/M09 A3039 RMK A01 T10521092  RH  074%=      5-min Rain = 0
KEN1 100519Z 18004KT M05/M09 A3039 RMK A01 T10531092  RH  074%=      5-min Rain = 0
KEN1 100520Z 18004KT M05/M09 A3039 RMK A01 T10531092  RH  074%=      5-min Rain = 0
KEN1 100521Z 18004KT M05/M09 A3039 RMK A01 T10531092  RH  074%=      5-min Rain = 0
KEN1 100522Z 18005KT M05/M09 A3038 RMK A01 T10531091  RH  074%=      5-min Rain = 0
KEN1 100523Z 18005KT M05/M09 A3038 RMK A01 T10531092  RH  074%=      5-min Rain = 0
KEN1 100524Z 19005KT M05/M09 A3038 RMK A01 T10531092  RH  074%=      5-min Rain = 0
KEN1 100525Z 19005KT M05/M09 A3038 RMK A01 T10531092  RH  074%=      5-min Rain = 0
KEN1 100526Z 20005KT M05/M09 A3038 RMK A01 T10531091  RH  074%=      5-min Rain = 0
KEN1 100527Z 21005KT M05/M09 A3039 RMK A01 T10531092  RH  074%=      5-min Rain = 0
KEN1 100528Z 21004KT M06/M09 A3039 RMK A01 T10551093  RH  075%=      5-min Rain = 0
KEN1 100529Z 22004KT M06/M09 A3039 RMK A01 T10561093  RH  075%=      5-min Rain = 0
KEN1 100530Z 22005KT M06/M09 A3039 RMK A01 T10561092  RH  075%=      5-min Rain = 0
KEN1 100531Z 22005KT M06/M09 A3039 RMK A01 T10571093  RH  076%=      5-min Rain = 0
KEN1 100532Z 21005KT M06/M09 A3039 RMK A01 T10591094  RH  076%=      5-min Rain = 0
KEN1 100533Z 21005KT M06/M10 A3039 RMK A01 T10611095  RH  077%=      5-min Rain = 0
KEN1 100534Z 22005KT M06/M10 A3039 RMK A01 T10631095  RH  078%=      5-min Rain = 0
KEN1 100535Z 21005KT M06/M10 A3039 RMK A01 T10631095  RH  078%=      5-min Rain = 0
KEN1 100536Z 21005KT M06/M09 A3039 RMK A01 T10641094  RH  079%=      5-min Rain = 0
KEN1 100537Z 21004KT M06/M09 A3039 RMK A01 T10631093  RH  079%=      5-min Rain = 0
KEN1 100538Z 21004KT M06/M09 A3039 RMK A01 T10621092  RH  080%=      5-min Rain = 0
KEN1 100539Z 22004KT M06/M09 A3039 RMK A01 T10621092  RH  079%=      5-min Rain = 0
KEN1 100540Z 22005KT M06/M09 A3039 RMK A01 T10611092  RH  079%=      5-min Rain = 0
KEN1 100541Z 22005KT M06/M09 A3038 RMK A01 T10611092  RH  079%=      5-min Rain = 0
KEN1 100542Z 23005KT M06/M09 A3038 RMK A01 T10611092  RH  079%=      5-min Rain = 0
KEN1 100543Z 23005KT M06/M09 A3038 RMK A01 T10611092  RH  079%=      5-min Rain = 0
KEN1 100544Z 23005KT M06/M09 A3038 RMK A01 T10621092  RH  079%=      5-min Rain = 0
KEN1 100545Z 23004KT M06/M09 A3038 RMK A01 T10621092  RH  079%=      5-min Rain = 0
KEN1 100546Z 24005KT M06/M09 A3038 RMK A01 T10631092  RH  079%=      5-min Rain = 0
KEN1 100547Z 24006KT M06/M09 A3038 RMK A01 T10631092  RH  080%=      5-min Rain = 0
KEN1 100548Z 25005KT M06/M09 A3038 RMK A01 T10631092  RH  080%=      5-min Rain = 0
KEN1 100549Z 25005KT M06/M09 A3038 RMK A01 T10631092  RH  080%=      5-min Rain = 0
KEN1 100550Z 25005KT M06/M09 A3038 RMK A01 T10631092  RH  080%=      5-min Rain = 0
KEN1 100551Z 25005KT M06/M09 A3038 RMK A01 T10631092  RH  080%=      5-min Rain = 0
KEN1 100552Z 25005KT M06/M09 A3038 RMK A01 T10631092  RH  080%=      5-min Rain = 0
KEN1 100553Z 25005KT M06/M09 A3038 RMK A01 T10621091  RH  080%=      5-min Rain = 0
KEN1 100554Z 24005KT M06/M09 A3038 RMK A01 T10601090  RH  079%=      5-min Rain = 0
KEN1 100555Z 25004KT M06/M09 A3038 RMK A01 T10571090  RH  078%=      5-min Rain = 0
KEN1 100556Z 24004KT M06/M09 A3038 RMK A01 T10561090  RH  077%=      5-min Rain = 0
KEN1 100557Z 24005KT M06/M09 A3038 RMK A01 T10551090  RH  076%=      5-min Rain = 0
KEN1 100558Z 24005KT M05/M09 A3038 RMK A01 T10541091  RH  076%=      5-min Rain = 0
KEN1 100559Z 24006KT M05/M09 A3038 RMK A01 T10531091  RH  075%=      5-min Rain = 0

Page generated in 0.1447 seconds.